
<gpx xmlns="http://www.topografix.com/GPX/1/1" xmlns:gpxx="http://www.garmin.com/xmlschemas/GpxExtensions/v3" xmlns:wptx1="http://www.garmin.com/xmlschemas/WaypointExtension/v1" xmlns:xsi="http://www.w3.org/2001/XMLSchema-instance" version="1.1" creator="Adze - https://getadze.com/" xsi:schemaLocation="http://www.topografix.com/GPX/1/1 http://www.topografix.com/GPX/1/1/gpx.xsd http://www.garmin.com/xmlschemas/GpxExtensions/v3 http://www8.garmin.com/xmlschemas/GpxExtensionsv3.xsd http://www.garmin.com/xmlschemas/WaypointExtension/v1 http://www8.garmin.com/xmlschemas/WaypointExtensionv1.xsd">
    <metadata>
        <name>Untitled Document</name>
        <link href="http://www.garmin.com"></link>
        <time>2018-03-05T08:33:33.336Z</time>
    </metadata>
    <wpt lon="101.301460" lat="14.317068">
        <ele>42.000000</ele>
        <name>Phu Khao Ngam Resort</name>
        <sym>Building</sym>
        <type>user</type>
        <extensions>
            <gpxx:WaypointExtension>
                <gpxx:DisplayMode>SymbolAndName</gpxx:DisplayMode>
            </gpxx:WaypointExtension>
            <wptx1:WaypointExtension>
                <wptx1:DisplayMode>SymbolAndName</wptx1:DisplayMode>
            </wptx1:WaypointExtension>
        </extensions>
    </wpt>
    <trk>
        <name>April 2006 - Saturday</name>
        <extensions>
            <gpxx:TrackExtension>
                <gpxx:DisplayColor>DarkGray</gpxx:DisplayColor>
            </gpxx:TrackExtension>
        </extensions>
        <trkseg>
            <trkpt lon="101.302335" lat="14.316022">
                <ele>21.286377</ele>
                <time>2006-04-22T06:04:31Z</time>
            </trkpt>
            <trkpt lon="101.302464" lat="14.316087">
                <ele>21.286377</ele>
                <time>2006-04-22T06:05:23Z</time>
            </trkpt>
            <trkpt lon="101.302443" lat="14.316130">
                <ele>21.286377</ele>
                <time>2006-04-22T06:05:27Z</time>
            </trkpt>
            <trkpt lon="101.302013" lat="14.316387">
                <ele>21.766968</ele>
                <time>2006-04-22T06:05:44Z</time>
            </trkpt>
            <trkpt lon="101.302013" lat="14.316752">
                <ele>21.766968</ele>
                <time>2006-04-22T06:05:54Z</time>
            </trkpt>
            <trkpt lon="101.301756" lat="14.316730">
                <ele>21.766968</ele>
                <time>2006-04-22T06:06:03Z</time>
            </trkpt>
            <trkpt lon="101.301434" lat="14.316430">
                <ele>21.766968</ele>
                <time>2006-04-22T06:06:24Z</time>
            </trkpt>
            <trkpt lon="101.301391" lat="14.316473">
                <ele>22.247559</ele>
                <time>2006-04-22T06:06:38Z</time>
            </trkpt>
            <trkpt lon="101.301305" lat="14.316494">
                <ele>23.208984</ele>
                <time>2006-04-22T06:06:44Z</time>
            </trkpt>
            <trkpt lon="101.301048" lat="14.316537">
                <ele>26.573608</ele>
                <time>2006-04-22T06:06:57Z</time>
            </trkpt>
            <trkpt lon="101.300983" lat="14.316623">
                <ele>26.573608</ele>
                <time>2006-04-22T06:07:01Z</time>
            </trkpt>
            <trkpt lon="101.301327" lat="14.316967">
                <ele>28.015503</ele>
                <time>2006-04-22T06:07:15Z</time>
            </trkpt>
            <trkpt lon="101.301928" lat="14.317460">
                <ele>31.380127</ele>
                <time>2006-04-22T06:07:35Z</time>
            </trkpt>
            <trkpt lon="101.302185" lat="14.317718">
                <ele>30.899536</ele>
                <time>2006-04-22T06:07:46Z</time>
            </trkpt>
            <trkpt lon="101.302443" lat="14.317267">
                <ele>30.899536</ele>
                <time>2006-04-22T06:07:57Z</time>
            </trkpt>
            <trkpt lon="101.302614" lat="14.317052">
                <ele>30.418823</ele>
                <time>2006-04-22T06:08:02Z</time>
            </trkpt>
            <trkpt lon="101.303043" lat="14.316838">
                <ele>28.015503</ele>
                <time>2006-04-22T06:08:11Z</time>
            </trkpt>
            <trkpt lon="101.303601" lat="14.316366">
                <ele>27.054321</ele>
                <time>2006-04-22T06:08:24Z</time>
            </trkpt>
            <trkpt lon="101.303902" lat="14.315915">
                <ele>27.054321</ele>
                <time>2006-04-22T06:08:33Z</time>
            </trkpt>
            <trkpt lon="101.304138" lat="14.315336">
                <ele>27.054321</ele>
                <time>2006-04-22T06:08:43Z</time>
            </trkpt>
            <trkpt lon="101.304674" lat="14.314392">
                <ele>28.015503</ele>
                <time>2006-04-22T06:09:00Z</time>
            </trkpt>
            <trkpt lon="101.304867" lat="14.314177">
                <ele>28.015503</ele>
                <time>2006-04-22T06:09:04Z</time>
            </trkpt>
            <trkpt lon="101.305254" lat="14.313555">
                <ele>27.054321</ele>
                <time>2006-04-22T06:09:17Z</time>
            </trkpt>
            <trkpt lon="101.305575" lat="14.312975">
                <ele>26.092896</ele>
                <time>2006-04-22T06:09:30Z</time>
            </trkpt>
            <trkpt lon="101.305597" lat="14.312847">
                <ele>27.054321</ele>
                <time>2006-04-22T06:09:32Z</time>
            </trkpt>
            <trkpt lon="101.305618" lat="14.311366">
                <ele>28.496216</ele>
                <time>2006-04-22T06:10:00Z</time>
            </trkpt>
            <trkpt lon="101.305575" lat="14.310637">
                <ele>27.534912</ele>
                <time>2006-04-22T06:10:13Z</time>
            </trkpt>
            <trkpt lon="101.305726" lat="14.309735">
                <ele>26.573608</ele>
                <time>2006-04-22T06:10:28Z</time>
            </trkpt>
            <trkpt lon="101.305726" lat="14.309671">
                <ele>26.573608</ele>
                <time>2006-04-22T06:10:30Z</time>
            </trkpt>
            <trkpt lon="101.305704" lat="14.309478">
                <ele>27.054321</ele>
                <time>2006-04-22T06:10:37Z</time>
            </trkpt>
            <trkpt lon="101.305833" lat="14.309392">
                <ele>27.534912</ele>
                <time>2006-04-22T06:10:41Z</time>
            </trkpt>
            <trkpt lon="101.306756" lat="14.309242">
                <ele>28.015503</ele>
                <time>2006-04-22T06:11:01Z</time>
            </trkpt>
            <trkpt lon="101.307099" lat="14.309134">
                <ele>27.054321</ele>
                <time>2006-04-22T06:11:09Z</time>
            </trkpt>
            <trkpt lon="101.307507" lat="14.308920">
                <ele>28.015503</ele>
                <time>2006-04-22T06:11:19Z</time>
            </trkpt>
            <trkpt lon="101.307485" lat="14.308770">
                <ele>27.534912</ele>
                <time>2006-04-22T06:11:23Z</time>
            </trkpt>
            <trkpt lon="101.307292" lat="14.308362">
                <ele>27.534912</ele>
                <time>2006-04-22T06:11:32Z</time>
            </trkpt>
            <trkpt lon="101.306863" lat="14.307203">
                <ele>27.054321</ele>
                <time>2006-04-22T06:11:56Z</time>
            </trkpt>
            <trkpt lon="101.306798" lat="14.307053">
                <ele>26.573608</ele>
                <time>2006-04-22T06:12:03Z</time>
            </trkpt>
            <trkpt lon="101.306648" lat="14.306688">
                <ele>27.534912</ele>
                <time>2006-04-22T06:12:28Z</time>
            </trkpt>
            <trkpt lon="101.306734" lat="14.306731">
                <ele>28.015503</ele>
                <time>2006-04-22T06:13:17Z</time>
            </trkpt>
            <trkpt lon="101.306949" lat="14.307117">
                <ele>28.015503</ele>
                <time>2006-04-22T06:13:43Z</time>
            </trkpt>
            <trkpt lon="101.306970" lat="14.307182">
                <ele>28.015503</ele>
                <time>2006-04-22T06:14:11Z</time>
            </trkpt>
            <trkpt lon="101.307056" lat="14.307396">
                <ele>28.976929</ele>
                <time>2006-04-22T06:14:31Z</time>
            </trkpt>
            <trkpt lon="101.307271" lat="14.307976">
                <ele>27.054321</ele>
                <time>2006-04-22T06:14:49Z</time>
            </trkpt>
            <trkpt lon="101.307292" lat="14.308105">
                <ele>27.054321</ele>
                <time>2006-04-22T06:14:52Z</time>
            </trkpt>
            <trkpt lon="101.307528" lat="14.308190">
                <ele>25.612305</ele>
                <time>2006-04-22T06:15:02Z</time>
            </trkpt>
            <trkpt lon="101.307635" lat="14.308212">
                <ele>25.131714</ele>
                <time>2006-04-22T06:15:08Z</time>
            </trkpt>
            <trkpt lon="101.307786" lat="14.308426">
                <ele>26.092896</ele>
                <time>2006-04-22T06:15:33Z</time>
            </trkpt>
            <trkpt lon="101.307893" lat="14.308448">
                <ele>27.534912</ele>
                <time>2006-04-22T06:15:45Z</time>
            </trkpt>
            <trkpt lon="101.307914" lat="14.308469">
                <ele>27.534912</ele>
                <time>2006-04-22T06:15:48Z</time>
            </trkpt>
            <trkpt lon="101.308000" lat="14.308491">
                <ele>26.092896</ele>
                <time>2006-04-22T06:16:05Z</time>
            </trkpt>
            <trkpt lon="101.308043" lat="14.308491">
                <ele>25.131714</ele>
                <time>2006-04-22T06:16:21Z</time>
            </trkpt>
            <trkpt lon="101.308064" lat="14.308469">
                <ele>24.651001</ele>
                <time>2006-04-22T06:16:37Z</time>
            </trkpt>
            <trkpt lon="101.308107" lat="14.308469">
                <ele>25.131714</ele>
                <time>2006-04-22T06:16:49Z</time>
            </trkpt>
            <trkpt lon="101.308150" lat="14.308448">
                <ele>26.092896</ele>
                <time>2006-04-22T06:17:01Z</time>
            </trkpt>
            <trkpt lon="101.308150" lat="14.308426">
                <ele>26.092896</ele>
                <time>2006-04-22T06:17:02Z</time>
            </trkpt>
            <trkpt lon="101.308193" lat="14.308405">
                <ele>26.092896</ele>
                <time>2006-04-22T06:17:17Z</time>
            </trkpt>
            <trkpt lon="101.308322" lat="14.308362">
                <ele>26.573608</ele>
                <time>2006-04-22T06:17:43Z</time>
            </trkpt>
            <trkpt lon="101.308708" lat="14.308298">
                <ele>25.131714</ele>
                <time>2006-04-22T06:17:57Z</time>
            </trkpt>
            <trkpt lon="101.308944" lat="14.308147">
                <ele>25.612305</ele>
                <time>2006-04-22T06:18:06Z</time>
            </trkpt>
            <trkpt lon="101.308923" lat="14.307890">
                <ele>28.015503</ele>
                <time>2006-04-22T06:18:16Z</time>
            </trkpt>
            <trkpt lon="101.309159" lat="14.307868">
                <ele>27.534912</ele>
                <time>2006-04-22T06:18:24Z</time>
            </trkpt>
            <trkpt lon="101.309202" lat="14.308233">
                <ele>26.573608</ele>
                <time>2006-04-22T06:18:36Z</time>
            </trkpt>
            <trkpt lon="101.309116" lat="14.308577">
                <ele>27.534912</ele>
                <time>2006-04-22T06:18:48Z</time>
            </trkpt>
            <trkpt lon="101.309245" lat="14.308898">
                <ele>27.534912</ele>
                <time>2006-04-22T06:19:01Z</time>
            </trkpt>
            <trkpt lon="101.309373" lat="14.309435">
                <ele>28.015503</ele>
                <time>2006-04-22T06:19:19Z</time>
            </trkpt>
            <trkpt lon="101.309352" lat="14.309735">
                <ele>27.054321</ele>
                <time>2006-04-22T06:19:28Z</time>
            </trkpt>
            <trkpt lon="101.309416" lat="14.309907">
                <ele>28.015503</ele>
                <time>2006-04-22T06:19:33Z</time>
            </trkpt>
            <trkpt lon="101.309803" lat="14.310143">
                <ele>27.534912</ele>
                <time>2006-04-22T06:19:45Z</time>
            </trkpt>
            <trkpt lon="101.309631" lat="14.310572">
                <ele>28.496216</ele>
                <time>2006-04-22T06:19:58Z</time>
            </trkpt>
            <trkpt lon="101.309223" lat="14.311237">
                <ele>28.976929</ele>
                <time>2006-04-22T06:20:18Z</time>
            </trkpt>
            <trkpt lon="101.309309" lat="14.311795">
                <ele>29.457520</ele>
                <time>2006-04-22T06:20:34Z</time>
            </trkpt>
            <trkpt lon="101.309438" lat="14.312611">
                <ele>32.341553</ele>
                <time>2006-04-22T06:20:56Z</time>
            </trkpt>
            <trkpt lon="101.309566" lat="14.313319">
                <ele>32.822266</ele>
                <time>2006-04-22T06:21:15Z</time>
            </trkpt>
            <trkpt lon="101.309631" lat="14.313533">
                <ele>34.744873</ele>
                <time>2006-04-22T06:21:29Z</time>
            </trkpt>
            <trkpt lon="101.309631" lat="14.313576">
                <ele>34.264160</ele>
                <time>2006-04-22T06:21:42Z</time>
            </trkpt>
            <trkpt lon="101.309631" lat="14.313684">
                <ele>32.822266</ele>
                <time>2006-04-22T06:22:21Z</time>
            </trkpt>
            <trkpt lon="101.309631" lat="14.313726">
                <ele>32.822266</ele>
                <time>2006-04-22T06:22:23Z</time>
            </trkpt>
            <trkpt lon="101.309524" lat="14.314156">
                <ele>32.341553</ele>
                <time>2006-04-22T06:22:39Z</time>
            </trkpt>
            <trkpt lon="101.309373" lat="14.314842">
                <ele>31.860718</ele>
                <time>2006-04-22T06:22:58Z</time>
            </trkpt>
            <trkpt lon="101.309481" lat="14.315400">
                <ele>33.783447</ele>
                <time>2006-04-22T06:23:13Z</time>
            </trkpt>
            <trkpt lon="101.309974" lat="14.316130">
                <ele>32.822266</ele>
                <time>2006-04-22T06:23:33Z</time>
            </trkpt>
            <trkpt lon="101.310167" lat="14.316258">
                <ele>32.822266</ele>
                <time>2006-04-22T06:23:38Z</time>
            </trkpt>
            <trkpt lon="101.310725" lat="14.316602">
                <ele>32.341553</ele>
                <time>2006-04-22T06:23:51Z</time>
            </trkpt>
            <trkpt lon="101.310918" lat="14.316452">
                <ele>29.938110</ele>
                <time>2006-04-22T06:23:57Z</time>
            </trkpt>
            <trkpt lon="101.310983" lat="14.316323">
                <ele>28.976929</ele>
                <time>2006-04-22T06:24:00Z</time>
            </trkpt>
            <trkpt lon="101.311047" lat="14.316237">
                <ele>28.976929</ele>
                <time>2006-04-22T06:24:02Z</time>
            </trkpt>
            <trkpt lon="101.311262" lat="14.316173">
                <ele>28.976929</ele>
                <time>2006-04-22T06:24:07Z</time>
            </trkpt>
            <trkpt lon="101.311347" lat="14.316173">
                <ele>29.938110</ele>
                <time>2006-04-22T06:24:10Z</time>
            </trkpt>
            <trkpt lon="101.311455" lat="14.316044">
                <ele>29.938110</ele>
                <time>2006-04-22T06:24:15Z</time>
            </trkpt>
            <trkpt lon="101.312099" lat="14.315507">
                <ele>30.418823</ele>
                <time>2006-04-22T06:24:34Z</time>
            </trkpt>
            <trkpt lon="101.312356" lat="14.315400">
                <ele>31.380127</ele>
                <time>2006-04-22T06:24:45Z</time>
            </trkpt>
            <trkpt lon="101.312506" lat="14.315379">
                <ele>30.899536</ele>
                <time>2006-04-22T06:24:55Z</time>
            </trkpt>
            <trkpt lon="101.313150" lat="14.315121">
                <ele>30.899536</ele>
                <time>2006-04-22T06:25:08Z</time>
            </trkpt>
            <trkpt lon="101.313751" lat="14.314885">
                <ele>29.457520</ele>
                <time>2006-04-22T06:25:19Z</time>
            </trkpt>
            <trkpt lon="101.313901" lat="14.314799">
                <ele>28.976929</ele>
                <time>2006-04-22T06:25:23Z</time>
            </trkpt>
            <trkpt lon="101.313901" lat="14.314756">
                <ele>30.418823</ele>
                <time>2006-04-22T06:25:30Z</time>
            </trkpt>
            <trkpt lon="101.313815" lat="14.314799">
                <ele>30.899536</ele>
                <time>2006-04-22T06:25:35Z</time>
            </trkpt>
            <trkpt lon="101.313665" lat="14.314456">
                <ele>28.976929</ele>
                <time>2006-04-22T06:25:49Z</time>
            </trkpt>
            <trkpt lon="101.313665" lat="14.314413">
                <ele>28.976929</ele>
                <time>2006-04-22T06:25:50Z</time>
            </trkpt>
            <trkpt lon="101.313622" lat="14.314327">
                <ele>28.496216</ele>
                <time>2006-04-22T06:25:52Z</time>
            </trkpt>
            <trkpt lon="101.313708" lat="14.314113">
                <ele>27.534912</ele>
                <time>2006-04-22T06:25:59Z</time>
            </trkpt>
            <trkpt lon="101.313686" lat="14.314027">
                <ele>27.534912</ele>
                <time>2006-04-22T06:26:01Z</time>
            </trkpt>
            <trkpt lon="101.313708" lat="14.313855">
                <ele>27.054321</ele>
                <time>2006-04-22T06:26:05Z</time>
            </trkpt>
            <trkpt lon="101.313493" lat="14.313297">
                <ele>28.976929</ele>
                <time>2006-04-22T06:26:18Z</time>
            </trkpt>
            <trkpt lon="101.313343" lat="14.313104">
                <ele>30.899536</ele>
                <time>2006-04-22T06:26:25Z</time>
            </trkpt>
            <trkpt lon="101.313300" lat="14.312868">
                <ele>29.938110</ele>
                <time>2006-04-22T06:26:33Z</time>
            </trkpt>
            <trkpt lon="101.313193" lat="14.312418">
                <ele>29.938110</ele>
                <time>2006-04-22T06:26:47Z</time>
            </trkpt>
            <trkpt lon="101.312871" lat="14.312418">
                <ele>29.457520</ele>
                <time>2006-04-22T06:27:00Z</time>
            </trkpt>
            <trkpt lon="101.312807" lat="14.312503">
                <ele>30.899536</ele>
                <time>2006-04-22T06:27:04Z</time>
            </trkpt>
            <trkpt lon="101.312635" lat="14.312954">
                <ele>31.380127</ele>
                <time>2006-04-22T06:27:17Z</time>
            </trkpt>
            <trkpt lon="101.312613" lat="14.312997">
                <ele>31.860718</ele>
                <time>2006-04-22T06:27:18Z</time>
            </trkpt>
            <trkpt lon="101.312613" lat="14.313211">
                <ele>31.860718</ele>
                <time>2006-04-22T06:27:23Z</time>
            </trkpt>
            <trkpt lon="101.312613" lat="14.313297">
                <ele>31.860718</ele>
                <time>2006-04-22T06:27:25Z</time>
            </trkpt>
            <trkpt lon="101.312592" lat="14.313383">
                <ele>31.380127</ele>
                <time>2006-04-22T06:27:27Z</time>
            </trkpt>
            <trkpt lon="101.312549" lat="14.313812">
                <ele>30.418823</ele>
                <time>2006-04-22T06:27:37Z</time>
            </trkpt>
            <trkpt lon="101.312635" lat="14.313834">
                <ele>30.418823</ele>
                <time>2006-04-22T06:27:39Z</time>
            </trkpt>
            <trkpt lon="101.312828" lat="14.314198">
                <ele>29.938110</ele>
                <time>2006-04-22T06:27:49Z</time>
            </trkpt>
            <trkpt lon="101.312892" lat="14.314263">
                <ele>30.418823</ele>
                <time>2006-04-22T06:27:51Z</time>
            </trkpt>
            <trkpt lon="101.313128" lat="14.314542">
                <ele>30.418823</ele>
                <time>2006-04-22T06:27:59Z</time>
            </trkpt>
            <trkpt lon="101.313150" lat="14.314713">
                <ele>30.899536</ele>
                <time>2006-04-22T06:28:03Z</time>
            </trkpt>
            <trkpt lon="101.313214" lat="14.314992">
                <ele>32.341553</ele>
                <time>2006-04-22T06:28:15Z</time>
            </trkpt>
            <trkpt lon="101.313300" lat="14.314992">
                <ele>31.860718</ele>
                <time>2006-04-22T06:28:26Z</time>
            </trkpt>
            <trkpt lon="101.313429" lat="14.315014">
                <ele>31.380127</ele>
                <time>2006-04-22T06:28:39Z</time>
            </trkpt>
            <trkpt lon="101.313729" lat="14.314864">
                <ele>30.899536</ele>
                <time>2006-04-22T06:28:53Z</time>
            </trkpt>
            <trkpt lon="101.314008" lat="14.314735">
                <ele>29.938110</ele>
                <time>2006-04-22T06:29:06Z</time>
            </trkpt>
            <trkpt lon="101.314480" lat="14.314585">
                <ele>30.418823</ele>
                <time>2006-04-22T06:29:21Z</time>
            </trkpt>
            <trkpt lon="101.315081" lat="14.314349">
                <ele>29.457520</ele>
                <time>2006-04-22T06:29:39Z</time>
            </trkpt>
            <trkpt lon="101.315253" lat="14.314241">
                <ele>28.976929</ele>
                <time>2006-04-22T06:29:46Z</time>
            </trkpt>
            <trkpt lon="101.315403" lat="14.314435">
                <ele>29.457520</ele>
                <time>2006-04-22T06:29:56Z</time>
            </trkpt>
            <trkpt lon="101.315854" lat="14.314542">
                <ele>30.418823</ele>
                <time>2006-04-22T06:30:08Z</time>
            </trkpt>
            <trkpt lon="101.316369" lat="14.314499">
                <ele>33.783447</ele>
                <time>2006-04-22T06:30:24Z</time>
            </trkpt>
            <trkpt lon="101.316476" lat="14.314456">
                <ele>34.744873</ele>
                <time>2006-04-22T06:30:30Z</time>
            </trkpt>
            <trkpt lon="101.316347" lat="14.314456">
                <ele>34.744873</ele>
                <time>2006-04-22T06:30:36Z</time>
            </trkpt>
            <trkpt lon="101.316047" lat="14.314520">
                <ele>31.380127</ele>
                <time>2006-04-22T06:30:41Z</time>
            </trkpt>
            <trkpt lon="101.315725" lat="14.314306">
                <ele>30.418823</ele>
                <time>2006-04-22T06:30:48Z</time>
            </trkpt>
            <trkpt lon="101.315703" lat="14.314156">
                <ele>30.899536</ele>
                <time>2006-04-22T06:30:51Z</time>
            </trkpt>
            <trkpt lon="101.315553" lat="14.313962">
                <ele>30.418823</ele>
                <time>2006-04-22T06:30:56Z</time>
            </trkpt>
            <trkpt lon="101.315489" lat="14.313877">
                <ele>30.418823</ele>
                <time>2006-04-22T06:30:58Z</time>
            </trkpt>
            <trkpt lon="101.315382" lat="14.313662">
                <ele>30.899536</ele>
                <time>2006-04-22T06:31:03Z</time>
            </trkpt>
            <trkpt lon="101.315339" lat="14.312654">
                <ele>30.899536</ele>
                <time>2006-04-22T06:31:19Z</time>
            </trkpt>
            <trkpt lon="101.315296" lat="14.311452">
                <ele>30.899536</ele>
                <time>2006-04-22T06:31:39Z</time>
            </trkpt>
            <trkpt lon="101.315317" lat="14.311388">
                <ele>30.899536</ele>
                <time>2006-04-22T06:31:40Z</time>
            </trkpt>
            <trkpt lon="101.315703" lat="14.311023">
                <ele>30.418823</ele>
                <time>2006-04-22T06:31:49Z</time>
            </trkpt>
            <trkpt lon="101.315789" lat="14.311001">
                <ele>30.418823</ele>
                <time>2006-04-22T06:31:50Z</time>
            </trkpt>
            <trkpt lon="101.316755" lat="14.310873">
                <ele>28.496216</ele>
                <time>2006-04-22T06:32:04Z</time>
            </trkpt>
            <trkpt lon="101.316969" lat="14.310551">
                <ele>28.976929</ele>
                <time>2006-04-22T06:32:11Z</time>
            </trkpt>
            <trkpt lon="101.316948" lat="14.310358">
                <ele>29.457520</ele>
                <time>2006-04-22T06:32:14Z</time>
            </trkpt>
            <trkpt lon="101.316733" lat="14.309692">
                <ele>31.380127</ele>
                <time>2006-04-22T06:32:24Z</time>
            </trkpt>
            <trkpt lon="101.316905" lat="14.309177">
                <ele>31.860718</ele>
                <time>2006-04-22T06:32:35Z</time>
            </trkpt>
            <trkpt lon="101.317077" lat="14.309220">
                <ele>32.822266</ele>
                <time>2006-04-22T06:32:45Z</time>
            </trkpt>
            <trkpt lon="101.317077" lat="14.309199">
                <ele>33.302856</ele>
                <time>2006-04-22T06:32:48Z</time>
            </trkpt>
            <trkpt lon="101.317034" lat="14.309177">
                <ele>33.783447</ele>
                <time>2006-04-22T06:32:52Z</time>
            </trkpt>
            <trkpt lon="101.316948" lat="14.309134">
                <ele>33.783447</ele>
                <time>2006-04-22T06:32:58Z</time>
            </trkpt>
            <trkpt lon="101.316969" lat="14.308705">
                <ele>33.302856</ele>
                <time>2006-04-22T06:33:10Z</time>
            </trkpt>
            <trkpt lon="101.317034" lat="14.307868">
                <ele>30.899536</ele>
                <time>2006-04-22T06:33:27Z</time>
            </trkpt>
            <trkpt lon="101.317034" lat="14.307590">
                <ele>29.938110</ele>
                <time>2006-04-22T06:33:38Z</time>
            </trkpt>
            <trkpt lon="101.316862" lat="14.307504">
                <ele>31.860718</ele>
                <time>2006-04-22T06:33:51Z</time>
            </trkpt>
            <trkpt lon="101.316197" lat="14.307504">
                <ele>33.302856</ele>
                <time>2006-04-22T06:34:05Z</time>
            </trkpt>
            <trkpt lon="101.315789" lat="14.307568">
                <ele>33.783447</ele>
                <time>2006-04-22T06:34:13Z</time>
            </trkpt>
            <trkpt lon="101.315682" lat="14.307568">
                <ele>34.264160</ele>
                <time>2006-04-22T06:34:15Z</time>
            </trkpt>
            <trkpt lon="101.315339" lat="14.307332">
                <ele>35.225464</ele>
                <time>2006-04-22T06:34:23Z</time>
            </trkpt>
            <trkpt lon="101.314545" lat="14.306366">
                <ele>36.667480</ele>
                <time>2006-04-22T06:34:43Z</time>
            </trkpt>
            <trkpt lon="101.313922" lat="14.305379">
                <ele>35.225464</ele>
                <time>2006-04-22T06:35:04Z</time>
            </trkpt>
            <trkpt lon="101.313901" lat="14.305315">
                <ele>35.225464</ele>
                <time>2006-04-22T06:35:05Z</time>
            </trkpt>
            <trkpt lon="101.313558" lat="14.304435">
                <ele>35.706055</ele>
                <time>2006-04-22T06:35:24Z</time>
            </trkpt>
            <trkpt lon="101.313536" lat="14.304392">
                <ele>35.225464</ele>
                <time>2006-04-22T06:35:25Z</time>
            </trkpt>
            <trkpt lon="101.313515" lat="14.304414">
                <ele>31.380127</ele>
                <time>2006-04-22T06:35:31Z</time>
            </trkpt>
            <trkpt lon="101.313665" lat="14.304714">
                <ele>32.822266</ele>
                <time>2006-04-22T06:35:46Z</time>
            </trkpt>
            <trkpt lon="101.313879" lat="14.305336">
                <ele>34.744873</ele>
                <time>2006-04-22T06:36:05Z</time>
            </trkpt>
            <trkpt lon="101.314287" lat="14.305980">
                <ele>34.264160</ele>
                <time>2006-04-22T06:36:21Z</time>
            </trkpt>
            <trkpt lon="101.315060" lat="14.306924">
                <ele>31.380127</ele>
                <time>2006-04-22T06:36:44Z</time>
            </trkpt>
            <trkpt lon="101.315746" lat="14.307783">
                <ele>32.341553</ele>
                <time>2006-04-22T06:37:05Z</time>
            </trkpt>
            <trkpt lon="101.316626" lat="14.307632">
                <ele>37.148071</ele>
                <time>2006-04-22T06:37:20Z</time>
            </trkpt>
            <trkpt lon="101.316819" lat="14.307632">
                <ele>36.667480</ele>
                <time>2006-04-22T06:37:23Z</time>
            </trkpt>
            <trkpt lon="101.317012" lat="14.307847">
                <ele>37.148071</ele>
                <time>2006-04-22T06:37:29Z</time>
            </trkpt>
            <trkpt lon="101.316905" lat="14.309113">
                <ele>31.860718</ele>
                <time>2006-04-22T06:37:51Z</time>
            </trkpt>
            <trkpt lon="101.316862" lat="14.309285">
                <ele>32.822266</ele>
                <time>2006-04-22T06:37:56Z</time>
            </trkpt>
            <trkpt lon="101.316712" lat="14.309843">
                <ele>30.418823</ele>
                <time>2006-04-22T06:38:09Z</time>
            </trkpt>
            <trkpt lon="101.316733" lat="14.310057">
                <ele>30.418823</ele>
                <time>2006-04-22T06:38:13Z</time>
            </trkpt>
            <trkpt lon="101.316926" lat="14.310594">
                <ele>33.783447</ele>
                <time>2006-04-22T06:38:24Z</time>
            </trkpt>
            <trkpt lon="101.316905" lat="14.310658">
                <ele>35.706055</ele>
                <time>2006-04-22T06:38:26Z</time>
            </trkpt>
            <trkpt lon="101.316948" lat="14.310658">
                <ele>36.667480</ele>
                <time>2006-04-22T06:38:30Z</time>
            </trkpt>
            <trkpt lon="101.316798" lat="14.310100">
                <ele>36.186768</ele>
                <time>2006-04-22T06:38:43Z</time>
            </trkpt>
            <trkpt lon="101.316733" lat="14.309821">
                <ele>36.186768</ele>
                <time>2006-04-22T06:38:49Z</time>
            </trkpt>
            <trkpt lon="101.316862" lat="14.309242">
                <ele>33.783447</ele>
                <time>2006-04-22T06:39:02Z</time>
            </trkpt>
            <trkpt lon="101.316819" lat="14.309199">
                <ele>33.302856</ele>
                <time>2006-04-22T06:39:06Z</time>
            </trkpt>
            <trkpt lon="101.316776" lat="14.309199">
                <ele>34.264160</ele>
                <time>2006-04-22T06:39:08Z</time>
            </trkpt>
            <trkpt lon="101.316433" lat="14.308941">
                <ele>35.706055</ele>
                <time>2006-04-22T06:39:19Z</time>
            </trkpt>
            <trkpt lon="101.315382" lat="14.308255">
                <ele>37.148071</ele>
                <time>2006-04-22T06:39:42Z</time>
            </trkpt>
            <trkpt lon="101.314974" lat="14.307997">
                <ele>38.109375</ele>
                <time>2006-04-22T06:39:54Z</time>
            </trkpt>
            <trkpt lon="101.315060" lat="14.308062">
                <ele>37.148071</ele>
                <time>2006-04-22T06:40:01Z</time>
            </trkpt>
            <trkpt lon="101.315746" lat="14.308491">
                <ele>33.783447</ele>
                <time>2006-04-22T06:40:16Z</time>
            </trkpt>
            <trkpt lon="101.316798" lat="14.309177">
                <ele>32.822266</ele>
                <time>2006-04-22T06:40:36Z</time>
            </trkpt>
            <trkpt lon="101.317034" lat="14.309285">
                <ele>31.860718</ele>
                <time>2006-04-22T06:40:41Z</time>
            </trkpt>
            <trkpt lon="101.317914" lat="14.309864">
                <ele>29.938110</ele>
                <time>2006-04-22T06:41:00Z</time>
            </trkpt>
            <trkpt lon="101.318171" lat="14.310036">
                <ele>30.899536</ele>
                <time>2006-04-22T06:41:06Z</time>
            </trkpt>
            <trkpt lon="101.318343" lat="14.310164">
                <ele>32.822266</ele>
                <time>2006-04-22T06:41:12Z</time>
            </trkpt>
            <trkpt lon="101.318364" lat="14.310164">
                <ele>33.302856</ele>
                <time>2006-04-22T06:41:14Z</time>
            </trkpt>
            <trkpt lon="101.318321" lat="14.310122">
                <ele>33.783447</ele>
                <time>2006-04-22T06:41:18Z</time>
            </trkpt>
            <trkpt lon="101.317892" lat="14.309864">
                <ele>36.186768</ele>
                <time>2006-04-22T06:41:30Z</time>
            </trkpt>
            <trkpt lon="101.317077" lat="14.309328">
                <ele>37.148071</ele>
                <time>2006-04-22T06:41:48Z</time>
            </trkpt>
            <trkpt lon="101.317034" lat="14.309306">
                <ele>37.628662</ele>
                <time>2006-04-22T06:41:49Z</time>
            </trkpt>
            <trkpt lon="101.316819" lat="14.309435">
                <ele>37.148071</ele>
                <time>2006-04-22T06:41:56Z</time>
            </trkpt>
            <trkpt lon="101.316733" lat="14.309886">
                <ele>33.302856</ele>
                <time>2006-04-22T06:42:04Z</time>
            </trkpt>
            <trkpt lon="101.316926" lat="14.310615">
                <ele>34.264160</ele>
                <time>2006-04-22T06:42:17Z</time>
            </trkpt>
            <trkpt lon="101.316926" lat="14.310808">
                <ele>34.744873</ele>
                <time>2006-04-22T06:42:22Z</time>
            </trkpt>
            <trkpt lon="101.317034" lat="14.310808">
                <ele>34.264160</ele>
                <time>2006-04-22T06:42:26Z</time>
            </trkpt>
            <trkpt lon="101.317592" lat="14.310765">
                <ele>31.860718</ele>
                <time>2006-04-22T06:42:37Z</time>
            </trkpt>
            <trkpt lon="101.317635" lat="14.310787">
                <ele>31.860718</ele>
                <time>2006-04-22T06:42:38Z</time>
            </trkpt>
            <trkpt lon="101.317956" lat="14.310894">
                <ele>31.380127</ele>
                <time>2006-04-22T06:42:48Z</time>
            </trkpt>
            <trkpt lon="101.318214" lat="14.311130">
                <ele>29.457520</ele>
                <time>2006-04-22T06:43:02Z</time>
            </trkpt>
            <trkpt lon="101.318321" lat="14.311194">
                <ele>28.496216</ele>
                <time>2006-04-22T06:43:14Z</time>
            </trkpt>
            <trkpt lon="101.318321" lat="14.311194">
                <ele>28.496216</ele>
                <time>2006-04-22T06:43:15Z</time>
            </trkpt>
            <trkpt lon="101.318407" lat="14.310894">
                <ele>28.015503</ele>
                <time>2006-04-22T06:43:27Z</time>
            </trkpt>
            <trkpt lon="101.318386" lat="14.310637">
                <ele>28.015503</ele>
                <time>2006-04-22T06:43:35Z</time>
            </trkpt>
            <trkpt lon="101.318514" lat="14.310529">
                <ele>28.015503</ele>
                <time>2006-04-22T06:43:39Z</time>
            </trkpt>
            <trkpt lon="101.318729" lat="14.310207">
                <ele>27.534912</ele>
                <time>2006-04-22T06:43:50Z</time>
            </trkpt>
            <trkpt lon="101.318750" lat="14.309714">
                <ele>28.015503</ele>
                <time>2006-04-22T06:44:03Z</time>
            </trkpt>
            <trkpt lon="101.318622" lat="14.308448">
                <ele>25.612305</ele>
                <time>2006-04-22T06:44:26Z</time>
            </trkpt>
            <trkpt lon="101.318536" lat="14.307568">
                <ele>25.131714</ele>
                <time>2006-04-22T06:44:41Z</time>
            </trkpt>
            <trkpt lon="101.318622" lat="14.307289">
                <ele>25.612305</ele>
                <time>2006-04-22T06:44:47Z</time>
            </trkpt>
            <trkpt lon="101.318471" lat="14.305959">
                <ele>28.496216</ele>
                <time>2006-04-22T06:45:12Z</time>
            </trkpt>
            <trkpt lon="101.318471" lat="14.305916">
                <ele>28.976929</ele>
                <time>2006-04-22T06:45:13Z</time>
            </trkpt>
            <trkpt lon="101.318493" lat="14.305787">
                <ele>28.976929</ele>
                <time>2006-04-22T06:45:16Z</time>
            </trkpt>
            <trkpt lon="101.318450" lat="14.305637">
                <ele>28.976929</ele>
                <time>2006-04-22T06:45:20Z</time>
            </trkpt>
            <trkpt lon="101.318364" lat="14.305315">
                <ele>31.380127</ele>
                <time>2006-04-22T06:45:31Z</time>
            </trkpt>
            <trkpt lon="101.318300" lat="14.305079">
                <ele>31.380127</ele>
                <time>2006-04-22T06:45:42Z</time>
            </trkpt>
            <trkpt lon="101.318321" lat="14.304929">
                <ele>32.822266</ele>
                <time>2006-04-22T06:45:48Z</time>
            </trkpt>
            <trkpt lon="101.318278" lat="14.304092">
                <ele>32.822266</ele>
                <time>2006-04-22T06:46:04Z</time>
            </trkpt>
            <trkpt lon="101.318214" lat="14.302890">
                <ele>35.225464</ele>
                <time>2006-04-22T06:46:26Z</time>
            </trkpt>
            <trkpt lon="101.318064" lat="14.301753">
                <ele>32.822266</ele>
                <time>2006-04-22T06:46:48Z</time>
            </trkpt>
            <trkpt lon="101.318021" lat="14.301410">
                <ele>32.822266</ele>
                <time>2006-04-22T06:46:59Z</time>
            </trkpt>
            <trkpt lon="101.317999" lat="14.301388">
                <ele>31.380127</ele>
                <time>2006-04-22T06:47:05Z</time>
            </trkpt>
            <trkpt lon="101.317999" lat="14.301732">
                <ele>32.822266</ele>
                <time>2006-04-22T06:47:23Z</time>
            </trkpt>
            <trkpt lon="101.318021" lat="14.302289">
                <ele>30.899536</ele>
                <time>2006-04-22T06:47:37Z</time>
            </trkpt>
            <trkpt lon="101.318042" lat="14.303041">
                <ele>28.015503</ele>
                <time>2006-04-22T06:47:54Z</time>
            </trkpt>
            <trkpt lon="101.318064" lat="14.303169">
                <ele>28.015503</ele>
                <time>2006-04-22T06:47:57Z</time>
            </trkpt>
            <trkpt lon="101.318042" lat="14.303298">
                <ele>26.573608</ele>
                <time>2006-04-22T06:48:01Z</time>
            </trkpt>
            <trkpt lon="101.317999" lat="14.303319">
                <ele>28.496216</ele>
                <time>2006-04-22T06:48:11Z</time>
            </trkpt>
            <trkpt lon="101.317978" lat="14.303319">
                <ele>32.822266</ele>
                <time>2006-04-22T06:48:31Z</time>
            </trkpt>
            <trkpt lon="101.317956" lat="14.303319">
                <ele>32.822266</ele>
                <time>2006-04-22T06:48:44Z</time>
            </trkpt>
            <trkpt lon="101.317914" lat="14.303191">
                <ele>35.706055</ele>
                <time>2006-04-22T06:48:51Z</time>
            </trkpt>
            <trkpt lon="101.317399" lat="14.302397">
                <ele>36.186768</ele>
                <time>2006-04-22T06:49:08Z</time>
            </trkpt>
            <trkpt lon="101.316562" lat="14.301152">
                <ele>36.186768</ele>
                <time>2006-04-22T06:49:33Z</time>
            </trkpt>
            <trkpt lon="101.315789" lat="14.300036">
                <ele>38.109375</ele>
                <time>2006-04-22T06:49:58Z</time>
            </trkpt>
            <trkpt lon="101.315188" lat="14.299135">
                <ele>37.148071</ele>
                <time>2006-04-22T06:50:16Z</time>
            </trkpt>
            <trkpt lon="101.314394" lat="14.297955">
                <ele>35.225464</ele>
                <time>2006-04-22T06:50:40Z</time>
            </trkpt>
            <trkpt lon="101.314352" lat="14.297912">
                <ele>35.706055</ele>
                <time>2006-04-22T06:50:41Z</time>
            </trkpt>
            <trkpt lon="101.314287" lat="14.297719">
                <ele>35.225464</ele>
                <time>2006-04-22T06:50:45Z</time>
            </trkpt>
            <trkpt lon="101.314266" lat="14.297547">
                <ele>34.744873</ele>
                <time>2006-04-22T06:50:49Z</time>
            </trkpt>
            <trkpt lon="101.314244" lat="14.297376">
                <ele>33.783447</ele>
                <time>2006-04-22T06:50:53Z</time>
            </trkpt>
            <trkpt lon="101.314051" lat="14.297204">
                <ele>33.302856</ele>
                <time>2006-04-22T06:50:59Z</time>
            </trkpt>
            <trkpt lon="101.313772" lat="14.297011">
                <ele>33.302856</ele>
                <time>2006-04-22T06:51:05Z</time>
            </trkpt>
            <trkpt lon="101.313450" lat="14.296925">
                <ele>33.302856</ele>
                <time>2006-04-22T06:51:11Z</time>
            </trkpt>
            <trkpt lon="101.312313" lat="14.297140">
                <ele>30.899536</ele>
                <time>2006-04-22T06:51:30Z</time>
            </trkpt>
            <trkpt lon="101.312163" lat="14.297225">
                <ele>30.899536</ele>
                <time>2006-04-22T06:51:33Z</time>
            </trkpt>
            <trkpt lon="101.311970" lat="14.297354">
                <ele>30.418823</ele>
                <time>2006-04-22T06:51:37Z</time>
            </trkpt>
            <trkpt lon="101.311948" lat="14.297547">
                <ele>31.860718</ele>
                <time>2006-04-22T06:51:41Z</time>
            </trkpt>
            <trkpt lon="101.311841" lat="14.297762">
                <ele>30.899536</ele>
                <time>2006-04-22T06:51:47Z</time>
            </trkpt>
            <trkpt lon="101.311498" lat="14.297934">
                <ele>30.418823</ele>
                <time>2006-04-22T06:51:54Z</time>
            </trkpt>
            <trkpt lon="101.311090" lat="14.297826">
                <ele>28.496216</ele>
                <time>2006-04-22T06:52:02Z</time>
            </trkpt>
            <trkpt lon="101.311047" lat="14.297805">
                <ele>28.015503</ele>
                <time>2006-04-22T06:52:03Z</time>
            </trkpt>
            <trkpt lon="101.310875" lat="14.297698">
                <ele>28.976929</ele>
                <time>2006-04-22T06:52:06Z</time>
            </trkpt>
            <trkpt lon="101.310747" lat="14.297590">
                <ele>29.938110</ele>
                <time>2006-04-22T06:52:09Z</time>
            </trkpt>
            <trkpt lon="101.310489" lat="14.297526">
                <ele>30.418823</ele>
                <time>2006-04-22T06:52:14Z</time>
            </trkpt>
            <trkpt lon="101.310189" lat="14.297547">
                <ele>29.938110</ele>
                <time>2006-04-22T06:52:19Z</time>
            </trkpt>
            <trkpt lon="101.310017" lat="14.297526">
                <ele>28.496216</ele>
                <time>2006-04-22T06:52:22Z</time>
            </trkpt>
            <trkpt lon="101.309588" lat="14.297526">
                <ele>28.496216</ele>
                <time>2006-04-22T06:52:30Z</time>
            </trkpt>
            <trkpt lon="101.309416" lat="14.297504">
                <ele>28.496216</ele>
                <time>2006-04-22T06:52:33Z</time>
            </trkpt>
            <trkpt lon="101.308944" lat="14.297376">
                <ele>26.573608</ele>
                <time>2006-04-22T06:52:42Z</time>
            </trkpt>
            <trkpt lon="101.308773" lat="14.297204">
                <ele>27.534912</ele>
                <time>2006-04-22T06:52:46Z</time>
            </trkpt>
            <trkpt lon="101.308472" lat="14.296882">
                <ele>30.418823</ele>
                <time>2006-04-22T06:52:56Z</time>
            </trkpt>
            <trkpt lon="101.308923" lat="14.296668">
                <ele>33.302856</ele>
                <time>2006-04-22T06:53:18Z</time>
            </trkpt>
            <trkpt lon="101.309073" lat="14.296582">
                <ele>34.264160</ele>
                <time>2006-04-22T06:53:26Z</time>
            </trkpt>
            <trkpt lon="101.308966" lat="14.296196">
                <ele>37.148071</ele>
                <time>2006-04-22T06:53:41Z</time>
            </trkpt>
            <trkpt lon="101.308966" lat="14.296067">
                <ele>36.667480</ele>
                <time>2006-04-22T06:53:44Z</time>
            </trkpt>
            <trkpt lon="101.309052" lat="14.295745">
                <ele>34.744873</ele>
                <time>2006-04-22T06:53:52Z</time>
            </trkpt>
            <trkpt lon="101.309631" lat="14.294779">
                <ele>28.496216</ele>
                <time>2006-04-22T06:54:15Z</time>
            </trkpt>
            <trkpt lon="101.309652" lat="14.294736">
                <ele>28.976929</ele>
                <time>2006-04-22T06:54:16Z</time>
            </trkpt>
            <trkpt lon="101.309674" lat="14.294479">
                <ele>28.976929</ele>
                <time>2006-04-22T06:54:24Z</time>
            </trkpt>
            <trkpt lon="101.309609" lat="14.294372">
                <ele>28.496216</ele>
                <time>2006-04-22T06:54:30Z</time>
            </trkpt>
            <trkpt lon="101.309352" lat="14.294200">
                <ele>25.131714</ele>
                <time>2006-04-22T06:54:42Z</time>
            </trkpt>
            <trkpt lon="101.309202" lat="14.294136">
                <ele>25.131714</ele>
                <time>2006-04-22T06:54:45Z</time>
            </trkpt>
            <trkpt lon="101.308322" lat="14.293621">
                <ele>26.092896</ele>
                <time>2006-04-22T06:55:04Z</time>
            </trkpt>
            <trkpt lon="101.308279" lat="14.293599">
                <ele>26.092896</ele>
                <time>2006-04-22T06:55:05Z</time>
            </trkpt>
            <trkpt lon="101.307313" lat="14.293427">
                <ele>23.208984</ele>
                <time>2006-04-22T06:55:24Z</time>
            </trkpt>
            <trkpt lon="101.307292" lat="14.293427">
                <ele>23.208984</ele>
                <time>2006-04-22T06:55:25Z</time>
            </trkpt>
            <trkpt lon="101.307356" lat="14.293320">
                <ele>22.247559</ele>
                <time>2006-04-22T06:55:29Z</time>
            </trkpt>
            <trkpt lon="101.307571" lat="14.293084">
                <ele>22.247559</ele>
                <time>2006-04-22T06:55:35Z</time>
            </trkpt>
            <trkpt lon="101.307893" lat="14.292805">
                <ele>21.286377</ele>
                <time>2006-04-22T06:55:43Z</time>
            </trkpt>
            <trkpt lon="101.308043" lat="14.292741">
                <ele>20.324951</ele>
                <time>2006-04-22T06:55:46Z</time>
            </trkpt>
            <trkpt lon="101.308343" lat="14.292634">
                <ele>19.844360</ele>
                <time>2006-04-22T06:55:52Z</time>
            </trkpt>
            <trkpt lon="101.309116" lat="14.292419">
                <ele>21.286377</ele>
                <time>2006-04-22T06:56:09Z</time>
            </trkpt>
            <trkpt lon="101.309137" lat="14.292419">
                <ele>21.286377</ele>
                <time>2006-04-22T06:56:10Z</time>
            </trkpt>
            <trkpt lon="101.309073" lat="14.292333">
                <ele>20.805664</ele>
                <time>2006-04-22T06:56:15Z</time>
            </trkpt>
            <trkpt lon="101.308966" lat="14.292054">
                <ele>21.286377</ele>
                <time>2006-04-22T06:56:30Z</time>
            </trkpt>
            <trkpt lon="101.309137" lat="14.292033">
                <ele>21.766968</ele>
                <time>2006-04-22T06:56:45Z</time>
            </trkpt>
            <trkpt lon="101.309309" lat="14.292033">
                <ele>20.324951</ele>
                <time>2006-04-22T06:57:01Z</time>
            </trkpt>
            <trkpt lon="101.309416" lat="14.291990">
                <ele>23.208984</ele>
                <time>2006-04-22T06:57:12Z</time>
            </trkpt>
            <trkpt lon="101.309438" lat="14.291925">
                <ele>23.208984</ele>
                <time>2006-04-22T06:57:16Z</time>
            </trkpt>
            <trkpt lon="101.309223" lat="14.291410">
                <ele>23.208984</ele>
                <time>2006-04-22T06:57:31Z</time>
            </trkpt>
            <trkpt lon="101.309180" lat="14.291368">
                <ele>22.728271</ele>
                <time>2006-04-22T06:57:32Z</time>
            </trkpt>
            <trkpt lon="101.309009" lat="14.291196">
                <ele>21.766968</ele>
                <time>2006-04-22T06:57:37Z</time>
            </trkpt>
            <trkpt lon="101.308665" lat="14.290788">
                <ele>22.728271</ele>
                <time>2006-04-22T06:57:47Z</time>
            </trkpt>
            <trkpt lon="101.308622" lat="14.290659">
                <ele>22.247559</ele>
                <time>2006-04-22T06:57:54Z</time>
            </trkpt>
            <trkpt lon="101.308579" lat="14.290638">
                <ele>18.883057</ele>
                <time>2006-04-22T06:58:35Z</time>
            </trkpt>
            <trkpt lon="101.308515" lat="14.290423">
                <ele>21.766968</ele>
                <time>2006-04-22T06:58:43Z</time>
            </trkpt>
            <trkpt lon="101.308343" lat="14.289823">
                <ele>23.208984</ele>
                <time>2006-04-22T06:58:57Z</time>
            </trkpt>
            <trkpt lon="101.308472" lat="14.289651">
                <ele>22.247559</ele>
                <time>2006-04-22T06:59:02Z</time>
            </trkpt>
            <trkpt lon="101.309159" lat="14.289501">
                <ele>22.247559</ele>
                <time>2006-04-22T06:59:15Z</time>
            </trkpt>
            <trkpt lon="101.309266" lat="14.289329">
                <ele>22.728271</ele>
                <time>2006-04-22T06:59:20Z</time>
            </trkpt>
            <trkpt lon="101.308944" lat="14.288557">
                <ele>21.286377</ele>
                <time>2006-04-22T06:59:34Z</time>
            </trkpt>
            <trkpt lon="101.309052" lat="14.288363">
                <ele>19.363770</ele>
                <time>2006-04-22T06:59:39Z</time>
            </trkpt>
            <trkpt lon="101.309288" lat="14.288321">
                <ele>19.363770</ele>
                <time>2006-04-22T06:59:43Z</time>
            </trkpt>
            <trkpt lon="101.309717" lat="14.288235">
                <ele>19.363770</ele>
                <time>2006-04-22T06:59:51Z</time>
            </trkpt>
            <trkpt lon="101.309803" lat="14.288042">
                <ele>20.324951</ele>
                <time>2006-04-22T06:59:55Z</time>
            </trkpt>
            <trkpt lon="101.309330" lat="14.286754">
                <ele>18.883057</ele>
                <time>2006-04-22T07:00:17Z</time>
            </trkpt>
            <trkpt lon="101.308923" lat="14.286046">
                <ele>21.286377</ele>
                <time>2006-04-22T07:00:30Z</time>
            </trkpt>
            <trkpt lon="101.308644" lat="14.285595">
                <ele>21.766968</ele>
                <time>2006-04-22T07:00:39Z</time>
            </trkpt>
            <trkpt lon="101.308451" lat="14.284759">
                <ele>22.247559</ele>
                <time>2006-04-22T07:00:56Z</time>
            </trkpt>
            <trkpt lon="101.308429" lat="14.284630">
                <ele>22.247559</ele>
                <time>2006-04-22T07:01:00Z</time>
            </trkpt>
            <trkpt lon="101.308494" lat="14.284523">
                <ele>20.324951</ele>
                <time>2006-04-22T07:01:04Z</time>
            </trkpt>
            <trkpt lon="101.309009" lat="14.284136">
                <ele>20.324951</ele>
                <time>2006-04-22T07:01:21Z</time>
            </trkpt>
            <trkpt lon="101.309609" lat="14.283686">
                <ele>19.844360</ele>
                <time>2006-04-22T07:01:38Z</time>
            </trkpt>
            <trkpt lon="101.309652" lat="14.283664">
                <ele>19.844360</ele>
                <time>2006-04-22T07:01:39Z</time>
            </trkpt>
            <trkpt lon="101.310554" lat="14.283428">
                <ele>19.363770</ele>
                <time>2006-04-22T07:01:57Z</time>
            </trkpt>
            <trkpt lon="101.311004" lat="14.283235">
                <ele>18.883057</ele>
                <time>2006-04-22T07:02:06Z</time>
            </trkpt>
            <trkpt lon="101.311390" lat="14.283278">
                <ele>18.883057</ele>
                <time>2006-04-22T07:02:13Z</time>
            </trkpt>
            <trkpt lon="101.311734" lat="14.283557">
                <ele>18.402344</ele>
                <time>2006-04-22T07:02:21Z</time>
            </trkpt>
            <trkpt lon="101.312034" lat="14.283514">
                <ele>18.402344</ele>
                <time>2006-04-22T07:02:27Z</time>
            </trkpt>
            <trkpt lon="101.312163" lat="14.283428">
                <ele>18.402344</ele>
                <time>2006-04-22T07:02:30Z</time>
            </trkpt>
            <trkpt lon="101.312420" lat="14.283428">
                <ele>18.402344</ele>
                <time>2006-04-22T07:02:35Z</time>
            </trkpt>
            <trkpt lon="101.313493" lat="14.283879">
                <ele>18.883057</ele>
                <time>2006-04-22T07:02:56Z</time>
            </trkpt>
            <trkpt lon="101.314051" lat="14.284244">
                <ele>19.363770</ele>
                <time>2006-04-22T07:03:09Z</time>
            </trkpt>
            <trkpt lon="101.314244" lat="14.284437">
                <ele>19.844360</ele>
                <time>2006-04-22T07:03:15Z</time>
            </trkpt>
            <trkpt lon="101.314373" lat="14.284523">
                <ele>19.844360</ele>
                <time>2006-04-22T07:03:18Z</time>
            </trkpt>
            <trkpt lon="101.314931" lat="14.284780">
                <ele>19.844360</ele>
                <time>2006-04-22T07:03:30Z</time>
            </trkpt>
            <trkpt lon="101.315210" lat="14.285424">
                <ele>20.324951</ele>
                <time>2006-04-22T07:03:46Z</time>
            </trkpt>
            <trkpt lon="101.315618" lat="14.285402">
                <ele>21.286377</ele>
                <time>2006-04-22T07:03:57Z</time>
            </trkpt>
            <trkpt lon="101.316369" lat="14.285188">
                <ele>24.170288</ele>
                <time>2006-04-22T07:04:18Z</time>
            </trkpt>
            <trkpt lon="101.316884" lat="14.285080">
                <ele>27.534912</ele>
                <time>2006-04-22T07:04:33Z</time>
            </trkpt>
            <trkpt lon="101.317635" lat="14.285102">
                <ele>30.418823</ele>
                <time>2006-04-22T07:04:54Z</time>
            </trkpt>
            <trkpt lon="101.317935" lat="14.285080">
                <ele>33.302856</ele>
                <time>2006-04-22T07:05:08Z</time>
            </trkpt>
            <trkpt lon="101.317978" lat="14.284737">
                <ele>32.822266</ele>
                <time>2006-04-22T07:05:22Z</time>
            </trkpt>
            <trkpt lon="101.318021" lat="14.284136">
                <ele>30.418823</ele>
                <time>2006-04-22T07:05:41Z</time>
            </trkpt>
            <trkpt lon="101.318128" lat="14.283428">
                <ele>29.457520</ele>
                <time>2006-04-22T07:06:01Z</time>
            </trkpt>
            <trkpt lon="101.318192" lat="14.282870">
                <ele>28.976929</ele>
                <time>2006-04-22T07:06:16Z</time>
            </trkpt>
            <trkpt lon="101.318257" lat="14.282334">
                <ele>28.496216</ele>
                <time>2006-04-22T07:06:31Z</time>
            </trkpt>
            <trkpt lon="101.318300" lat="14.282119">
                <ele>28.496216</ele>
                <time>2006-04-22T07:06:36Z</time>
            </trkpt>
            <trkpt lon="101.318171" lat="14.281154">
                <ele>28.976929</ele>
                <time>2006-04-22T07:06:58Z</time>
            </trkpt>
            <trkpt lon="101.317806" lat="14.280510">
                <ele>32.341553</ele>
                <time>2006-04-22T07:07:15Z</time>
            </trkpt>
            <trkpt lon="101.317828" lat="14.280488">
                <ele>31.860718</ele>
                <time>2006-04-22T07:07:27Z</time>
            </trkpt>
            <trkpt lon="101.317871" lat="14.280446">
                <ele>28.976929</ele>
                <time>2006-04-22T07:07:47Z</time>
            </trkpt>
            <trkpt lon="101.317935" lat="14.280424">
                <ele>29.938110</ele>
                <time>2006-04-22T07:07:59Z</time>
            </trkpt>
            <trkpt lon="101.318214" lat="14.280210">
                <ele>35.225464</ele>
                <time>2006-04-22T07:08:14Z</time>
            </trkpt>
            <trkpt lon="101.319072" lat="14.279394">
                <ele>39.551270</ele>
                <time>2006-04-22T07:09:00Z</time>
            </trkpt>
            <trkpt lon="101.319823" lat="14.276991">
                <ele>100.595093</ele>
                <time>2006-04-22T07:26:17Z</time>
            </trkpt>
            <trkpt lon="101.319737" lat="14.276991">
                <ele>74.158813</ele>
                <time>2006-04-22T07:26:21Z</time>
            </trkpt>
            <trkpt lon="101.319544" lat="14.276648">
                <ele>74.158813</ele>
                <time>2006-04-22T07:26:44Z</time>
            </trkpt>
            <trkpt lon="101.319308" lat="14.276562">
                <ele>74.158813</ele>
                <time>2006-04-22T07:27:10Z</time>
            </trkpt>
            <trkpt lon="101.318643" lat="14.276154">
                <ele>71.755493</ele>
                <time>2006-04-22T07:28:19Z</time>
            </trkpt>
            <trkpt lon="101.318450" lat="14.276090">
                <ele>71.755493</ele>
                <time>2006-04-22T07:28:37Z</time>
            </trkpt>
            <trkpt lon="101.317699" lat="14.276004">
                <ele>70.313477</ele>
                <time>2006-04-22T07:29:23Z</time>
            </trkpt>
            <trkpt lon="101.317463" lat="14.275939">
                <ele>64.065063</ele>
                <time>2006-04-22T07:29:43Z</time>
            </trkpt>
            <trkpt lon="101.317463" lat="14.275725">
                <ele>53.971191</ele>
                <time>2006-04-22T07:29:58Z</time>
            </trkpt>
            <trkpt lon="101.317420" lat="14.275575">
                <ele>49.164551</ele>
                <time>2006-04-22T07:30:10Z</time>
            </trkpt>
            <trkpt lon="101.317356" lat="14.275038">
                <ele>43.396606</ele>
                <time>2006-04-22T07:30:27Z</time>
            </trkpt>
            <trkpt lon="101.317420" lat="14.274480">
                <ele>39.551270</ele>
                <time>2006-04-22T07:30:44Z</time>
            </trkpt>
            <trkpt lon="101.317849" lat="14.274051">
                <ele>38.590088</ele>
                <time>2006-04-22T07:31:01Z</time>
            </trkpt>
            <trkpt lon="101.318214" lat="14.273686">
                <ele>38.590088</ele>
                <time>2006-04-22T07:31:15Z</time>
            </trkpt>
            <trkpt lon="101.318600" lat="14.273086">
                <ele>37.148071</ele>
                <time>2006-04-22T07:31:33Z</time>
            </trkpt>
            <trkpt lon="101.318750" lat="14.272807">
                <ele>37.628662</ele>
                <time>2006-04-22T07:31:41Z</time>
            </trkpt>
            <trkpt lon="101.319137" lat="14.272077">
                <ele>37.628662</ele>
                <time>2006-04-22T07:32:00Z</time>
            </trkpt>
            <trkpt lon="101.319544" lat="14.271455">
                <ele>36.667480</ele>
                <time>2006-04-22T07:32:17Z</time>
            </trkpt>
            <trkpt lon="101.319587" lat="14.271369">
                <ele>37.148071</ele>
                <time>2006-04-22T07:32:20Z</time>
            </trkpt>
            <trkpt lon="101.319351" lat="14.271197">
                <ele>33.783447</ele>
                <time>2006-04-22T07:32:31Z</time>
            </trkpt>
            <trkpt lon="101.318493" lat="14.271090">
                <ele>32.822266</ele>
                <time>2006-04-22T07:32:48Z</time>
            </trkpt>
            <trkpt lon="101.317334" lat="14.270833">
                <ele>30.418823</ele>
                <time>2006-04-22T07:33:07Z</time>
            </trkpt>
            <trkpt lon="101.315982" lat="14.270532">
                <ele>29.938110</ele>
                <time>2006-04-22T07:33:29Z</time>
            </trkpt>
            <trkpt lon="101.315961" lat="14.270575">
                <ele>30.418823</ele>
                <time>2006-04-22T07:33:32Z</time>
            </trkpt>
            <trkpt lon="101.316068" lat="14.270468">
                <ele>27.534912</ele>
                <time>2006-04-22T07:33:41Z</time>
            </trkpt>
            <trkpt lon="101.316111" lat="14.269996">
                <ele>29.457520</ele>
                <time>2006-04-22T07:33:55Z</time>
            </trkpt>
            <trkpt lon="101.316347" lat="14.269760">
                <ele>28.976929</ele>
                <time>2006-04-22T07:34:08Z</time>
            </trkpt>
            <trkpt lon="101.316841" lat="14.269524">
                <ele>28.976929</ele>
                <time>2006-04-22T07:34:33Z</time>
            </trkpt>
            <trkpt lon="101.317012" lat="14.269223">
                <ele>28.496216</ele>
                <time>2006-04-22T07:34:44Z</time>
            </trkpt>
            <trkpt lon="101.316926" lat="14.268858">
                <ele>28.496216</ele>
                <time>2006-04-22T07:34:58Z</time>
            </trkpt>
            <trkpt lon="101.316841" lat="14.268408">
                <ele>31.860718</ele>
                <time>2006-04-22T07:35:15Z</time>
            </trkpt>
            <trkpt lon="101.316798" lat="14.268279">
                <ele>32.822266</ele>
                <time>2006-04-22T07:35:21Z</time>
            </trkpt>
            <trkpt lon="101.316690" lat="14.268215">
                <ele>33.302856</ele>
                <time>2006-04-22T07:35:25Z</time>
            </trkpt>
            <trkpt lon="101.316111" lat="14.267721">
                <ele>33.302856</ele>
                <time>2006-04-22T07:35:44Z</time>
            </trkpt>
            <trkpt lon="101.315467" lat="14.267185">
                <ele>33.783447</ele>
                <time>2006-04-22T07:36:02Z</time>
            </trkpt>
            <trkpt lon="101.314673" lat="14.266498">
                <ele>30.418823</ele>
                <time>2006-04-22T07:36:24Z</time>
            </trkpt>
            <trkpt lon="101.313944" lat="14.266005">
                <ele>28.976929</ele>
                <time>2006-04-22T07:36:43Z</time>
            </trkpt>
            <trkpt lon="101.312914" lat="14.265532">
                <ele>27.534912</ele>
                <time>2006-04-22T07:37:02Z</time>
            </trkpt>
            <trkpt lon="101.311777" lat="14.265018">
                <ele>28.496216</ele>
                <time>2006-04-22T07:37:23Z</time>
            </trkpt>
            <trkpt lon="101.310425" lat="14.264417">
                <ele>28.496216</ele>
                <time>2006-04-22T07:37:48Z</time>
            </trkpt>
            <trkpt lon="101.309159" lat="14.263837">
                <ele>28.976929</ele>
                <time>2006-04-22T07:38:11Z</time>
            </trkpt>
            <trkpt lon="101.308150" lat="14.263473">
                <ele>29.457520</ele>
                <time>2006-04-22T07:38:30Z</time>
            </trkpt>
            <trkpt lon="101.306992" lat="14.263515">
                <ele>28.496216</ele>
                <time>2006-04-22T07:38:50Z</time>
            </trkpt>
            <trkpt lon="101.305833" lat="14.263537">
                <ele>28.496216</ele>
                <time>2006-04-22T07:39:09Z</time>
            </trkpt>
            <trkpt lon="101.304545" lat="14.263580">
                <ele>27.534912</ele>
                <time>2006-04-22T07:39:30Z</time>
            </trkpt>
            <trkpt lon="101.304374" lat="14.263580">
                <ele>27.054321</ele>
                <time>2006-04-22T07:39:33Z</time>
            </trkpt>
            <trkpt lon="101.304116" lat="14.263258">
                <ele>27.054321</ele>
                <time>2006-04-22T07:39:41Z</time>
            </trkpt>
            <trkpt lon="101.304245" lat="14.263000">
                <ele>27.054321</ele>
                <time>2006-04-22T07:39:46Z</time>
            </trkpt>
            <trkpt lon="101.304803" lat="14.262099">
                <ele>26.092896</ele>
                <time>2006-04-22T07:40:04Z</time>
            </trkpt>
            <trkpt lon="101.305189" lat="14.260941">
                <ele>26.573608</ele>
                <time>2006-04-22T07:40:26Z</time>
            </trkpt>
            <trkpt lon="101.305254" lat="14.260769">
                <ele>26.573608</ele>
                <time>2006-04-22T07:40:29Z</time>
            </trkpt>
            <trkpt lon="101.305017" lat="14.260468">
                <ele>27.534912</ele>
                <time>2006-04-22T07:40:35Z</time>
            </trkpt>
            <trkpt lon="101.304138" lat="14.259911">
                <ele>27.054321</ele>
                <time>2006-04-22T07:40:49Z</time>
            </trkpt>
            <trkpt lon="101.303515" lat="14.260039">
                <ele>25.612305</ele>
                <time>2006-04-22T07:40:59Z</time>
            </trkpt>
            <trkpt lon="101.303387" lat="14.259953">
                <ele>25.612305</ele>
                <time>2006-04-22T07:41:04Z</time>
            </trkpt>
            <trkpt lon="101.303151" lat="14.259331">
                <ele>23.208984</ele>
                <time>2006-04-22T07:41:20Z</time>
            </trkpt>
            <trkpt lon="101.303000" lat="14.258859">
                <ele>22.728271</ele>
                <time>2006-04-22T07:41:29Z</time>
            </trkpt>
            <trkpt lon="101.303022" lat="14.258366">
                <ele>24.170288</ele>
                <time>2006-04-22T07:41:44Z</time>
            </trkpt>
            <trkpt lon="101.303172" lat="14.257722">
                <ele>24.170288</ele>
                <time>2006-04-22T07:42:04Z</time>
            </trkpt>
            <trkpt lon="101.303236" lat="14.257379">
                <ele>27.534912</ele>
                <time>2006-04-22T07:42:22Z</time>
            </trkpt>
            <trkpt lon="101.303236" lat="14.257121">
                <ele>29.938110</ele>
                <time>2006-04-22T07:42:40Z</time>
            </trkpt>
            <trkpt lon="101.303258" lat="14.256885">
                <ele>34.264160</ele>
                <time>2006-04-22T07:43:03Z</time>
            </trkpt>
            <trkpt lon="101.303022" lat="14.256413">
                <ele>34.264160</ele>
                <time>2006-04-22T07:43:43Z</time>
            </trkpt>
            <trkpt lon="101.302807" lat="14.256220">
                <ele>37.148071</ele>
                <time>2006-04-22T07:44:10Z</time>
            </trkpt>
            <trkpt lon="101.302485" lat="14.256005">
                <ele>40.993408</ele>
                <time>2006-04-22T07:44:31Z</time>
            </trkpt>
            <trkpt lon="101.302335" lat="14.255683">
                <ele>43.877319</ele>
                <time>2006-04-22T07:44:53Z</time>
            </trkpt>
            <trkpt lon="101.302357" lat="14.255061">
                <ele>45.319214</ele>
                <time>2006-04-22T07:45:17Z</time>
            </trkpt>
            <trkpt lon="101.302207" lat="14.254096">
                <ele>46.761230</ele>
                <time>2006-04-22T07:45:43Z</time>
            </trkpt>
            <trkpt lon="101.302013" lat="14.253345">
                <ele>42.916016</ele>
                <time>2006-04-22T07:45:58Z</time>
            </trkpt>
            <trkpt lon="101.301734" lat="14.252036">
                <ele>41.473999</ele>
                <time>2006-04-22T07:46:17Z</time>
            </trkpt>
            <trkpt lon="101.301305" lat="14.250276">
                <ele>40.032104</ele>
                <time>2006-04-22T07:46:44Z</time>
            </trkpt>
            <trkpt lon="101.301091" lat="14.250083">
                <ele>38.109375</ele>
                <time>2006-04-22T07:46:54Z</time>
            </trkpt>
            <trkpt lon="101.300855" lat="14.249654">
                <ele>35.706055</ele>
                <time>2006-04-22T07:47:06Z</time>
            </trkpt>
            <trkpt lon="101.300297" lat="14.248881">
                <ele>33.302856</ele>
                <time>2006-04-22T07:47:24Z</time>
            </trkpt>
            <trkpt lon="101.300147" lat="14.248710">
                <ele>31.380127</ele>
                <time>2006-04-22T07:47:30Z</time>
            </trkpt>
            <trkpt lon="101.300189" lat="14.248624">
                <ele>31.380127</ele>
                <time>2006-04-22T07:47:34Z</time>
            </trkpt>
            <trkpt lon="101.300511" lat="14.248281">
                <ele>29.938110</ele>
                <time>2006-04-22T07:47:52Z</time>
            </trkpt>
            <trkpt lon="101.300812" lat="14.248109">
                <ele>30.418823</ele>
                <time>2006-04-22T07:48:11Z</time>
            </trkpt>
            <trkpt lon="101.301434" lat="14.248195">
                <ele>30.418823</ele>
                <time>2006-04-22T07:48:40Z</time>
            </trkpt>
            <trkpt lon="101.301842" lat="14.247959">
                <ele>28.015503</ele>
                <time>2006-04-22T07:49:03Z</time>
            </trkpt>
            <trkpt lon="101.301863" lat="14.247894">
                <ele>27.534912</ele>
                <time>2006-04-22T07:49:06Z</time>
            </trkpt>
            <trkpt lon="101.301799" lat="14.246542">
                <ele>28.976929</ele>
                <time>2006-04-22T07:49:30Z</time>
            </trkpt>
            <trkpt lon="101.301799" lat="14.246500">
                <ele>28.496216</ele>
                <time>2006-04-22T07:49:32Z</time>
            </trkpt>
            <trkpt lon="101.301584" lat="14.246113">
                <ele>25.131714</ele>
                <time>2006-04-22T07:49:53Z</time>
            </trkpt>
            <trkpt lon="101.301477" lat="14.245598">
                <ele>23.689575</ele>
                <time>2006-04-22T07:50:12Z</time>
            </trkpt>
            <trkpt lon="101.301455" lat="14.245577">
                <ele>23.689575</ele>
                <time>2006-04-22T07:50:13Z</time>
            </trkpt>
            <trkpt lon="101.301026" lat="14.245555">
                <ele>20.805664</ele>
                <time>2006-04-22T07:50:32Z</time>
            </trkpt>
            <trkpt lon="101.300790" lat="14.245727">
                <ele>18.883057</ele>
                <time>2006-04-22T07:50:44Z</time>
            </trkpt>
            <trkpt lon="101.300340" lat="14.245856">
                <ele>16.960449</ele>
                <time>2006-04-22T07:51:00Z</time>
            </trkpt>
            <trkpt lon="101.300082" lat="14.245985">
                <ele>14.557007</ele>
                <time>2006-04-22T07:51:13Z</time>
            </trkpt>
            <trkpt lon="101.299632" lat="14.246221">
                <ele>14.557007</ele>
                <time>2006-04-22T07:51:33Z</time>
            </trkpt>
            <trkpt lon="101.299224" lat="14.246371">
                <ele>14.076416</ele>
                <time>2006-04-22T07:51:48Z</time>
            </trkpt>
            <trkpt lon="101.298945" lat="14.246736">
                <ele>14.076416</ele>
                <time>2006-04-22T07:52:02Z</time>
            </trkpt>
            <trkpt lon="101.298730" lat="14.247100">
                <ele>14.557007</ele>
                <time>2006-04-22T07:52:15Z</time>
            </trkpt>
            <trkpt lon="101.298666" lat="14.247143">
                <ele>15.037720</ele>
                <time>2006-04-22T07:52:18Z</time>
            </trkpt>
            <trkpt lon="101.298580" lat="14.247079">
                <ele>15.518433</ele>
                <time>2006-04-22T07:52:23Z</time>
            </trkpt>
            <trkpt lon="101.298194" lat="14.246607">
                <ele>15.518433</ele>
                <time>2006-04-22T07:52:39Z</time>
            </trkpt>
            <trkpt lon="101.298087" lat="14.246521">
                <ele>15.518433</ele>
                <time>2006-04-22T07:52:42Z</time>
            </trkpt>
            <trkpt lon="101.298087" lat="14.246285">
                <ele>15.518433</ele>
                <time>2006-04-22T07:52:48Z</time>
            </trkpt>
            <trkpt lon="101.298130" lat="14.246178">
                <ele>15.518433</ele>
                <time>2006-04-22T07:52:51Z</time>
            </trkpt>
            <trkpt lon="101.298151" lat="14.246006">
                <ele>15.037720</ele>
                <time>2006-04-22T07:52:55Z</time>
            </trkpt>
            <trkpt lon="101.298065" lat="14.245791">
                <ele>15.518433</ele>
                <time>2006-04-22T07:53:00Z</time>
            </trkpt>
            <trkpt lon="101.297400" lat="14.244933">
                <ele>15.999023</ele>
                <time>2006-04-22T07:53:21Z</time>
            </trkpt>
            <trkpt lon="101.296928" lat="14.244032">
                <ele>16.479736</ele>
                <time>2006-04-22T07:53:40Z</time>
            </trkpt>
            <trkpt lon="101.296306" lat="14.242852">
                <ele>15.518433</ele>
                <time>2006-04-22T07:54:05Z</time>
            </trkpt>
            <trkpt lon="101.296284" lat="14.242809">
                <ele>15.037720</ele>
                <time>2006-04-22T07:54:06Z</time>
            </trkpt>
            <trkpt lon="101.295919" lat="14.242637">
                <ele>15.037720</ele>
                <time>2006-04-22T07:54:14Z</time>
            </trkpt>
            <trkpt lon="101.295319" lat="14.242594">
                <ele>14.076416</ele>
                <time>2006-04-22T07:54:26Z</time>
            </trkpt>
            <trkpt lon="101.295018" lat="14.242401">
                <ele>14.076416</ele>
                <time>2006-04-22T07:54:34Z</time>
            </trkpt>
            <trkpt lon="101.294932" lat="14.242272">
                <ele>14.076416</ele>
                <time>2006-04-22T07:54:37Z</time>
            </trkpt>
            <trkpt lon="101.294889" lat="14.242187">
                <ele>14.076416</ele>
                <time>2006-04-22T07:54:39Z</time>
            </trkpt>
            <trkpt lon="101.294374" lat="14.241393">
                <ele>14.076416</ele>
                <time>2006-04-22T07:54:58Z</time>
            </trkpt>
            <trkpt lon="101.294096" lat="14.241457">
                <ele>12.634399</ele>
                <time>2006-04-22T07:55:05Z</time>
            </trkpt>
            <trkpt lon="101.294031" lat="14.241521">
                <ele>12.634399</ele>
                <time>2006-04-22T07:55:07Z</time>
            </trkpt>
            <trkpt lon="101.293559" lat="14.241843">
                <ele>12.634399</ele>
                <time>2006-04-22T07:55:24Z</time>
            </trkpt>
            <trkpt lon="101.293194" lat="14.242251">
                <ele>13.115112</ele>
                <time>2006-04-22T07:55:40Z</time>
            </trkpt>
            <trkpt lon="101.292830" lat="14.242423">
                <ele>13.115112</ele>
                <time>2006-04-22T07:55:55Z</time>
            </trkpt>
            <trkpt lon="101.292207" lat="14.242573">
                <ele>14.557007</ele>
                <time>2006-04-22T07:56:11Z</time>
            </trkpt>
            <trkpt lon="101.291306" lat="14.242809">
                <ele>15.999023</ele>
                <time>2006-04-22T07:56:35Z</time>
            </trkpt>
            <trkpt lon="101.291049" lat="14.242895">
                <ele>16.479736</ele>
                <time>2006-04-22T07:56:42Z</time>
            </trkpt>
            <trkpt lon="101.291027" lat="14.243152">
                <ele>17.441162</ele>
                <time>2006-04-22T07:56:49Z</time>
            </trkpt>
            <trkpt lon="101.291091" lat="14.243324">
                <ele>16.479736</ele>
                <time>2006-04-22T07:56:53Z</time>
            </trkpt>
            <trkpt lon="101.291156" lat="14.243538">
                <ele>15.518433</ele>
                <time>2006-04-22T07:56:59Z</time>
            </trkpt>
            <trkpt lon="101.291006" lat="14.243646">
                <ele>15.518433</ele>
                <time>2006-04-22T07:57:04Z</time>
            </trkpt>
            <trkpt lon="101.290383" lat="14.244118">
                <ele>13.115112</ele>
                <time>2006-04-22T07:57:20Z</time>
            </trkpt>
            <trkpt lon="101.290276" lat="14.244225">
                <ele>13.115112</ele>
                <time>2006-04-22T07:57:23Z</time>
            </trkpt>
            <trkpt lon="101.289911" lat="14.244332">
                <ele>13.115112</ele>
                <time>2006-04-22T07:57:30Z</time>
            </trkpt>
            <trkpt lon="101.289332" lat="14.244783">
                <ele>12.153809</ele>
                <time>2006-04-22T07:57:44Z</time>
            </trkpt>
            <trkpt lon="101.289096" lat="14.245083">
                <ele>12.634399</ele>
                <time>2006-04-22T07:57:51Z</time>
            </trkpt>
            <trkpt lon="101.288517" lat="14.245813">
                <ele>12.153809</ele>
                <time>2006-04-22T07:58:08Z</time>
            </trkpt>
            <trkpt lon="101.288388" lat="14.246070">
                <ele>11.673218</ele>
                <time>2006-04-22T07:58:13Z</time>
            </trkpt>
            <trkpt lon="101.288323" lat="14.246156">
                <ele>11.673218</ele>
                <time>2006-04-22T07:58:15Z</time>
            </trkpt>
            <trkpt lon="101.288195" lat="14.246714">
                <ele>12.634399</ele>
                <time>2006-04-22T07:58:26Z</time>
            </trkpt>
            <trkpt lon="101.288173" lat="14.246886">
                <ele>13.115112</ele>
                <time>2006-04-22T07:58:29Z</time>
            </trkpt>
            <trkpt lon="101.288173" lat="14.247208">
                <ele>13.595825</ele>
                <time>2006-04-22T07:58:35Z</time>
            </trkpt>
            <trkpt lon="101.287980" lat="14.247358">
                <ele>14.557007</ele>
                <time>2006-04-22T07:58:41Z</time>
            </trkpt>
            <trkpt lon="101.287808" lat="14.247465">
                <ele>14.076416</ele>
                <time>2006-04-22T07:58:45Z</time>
            </trkpt>
            <trkpt lon="101.287658" lat="14.247572">
                <ele>14.076416</ele>
                <time>2006-04-22T07:58:49Z</time>
            </trkpt>
            <trkpt lon="101.287444" lat="14.247551">
                <ele>14.557007</ele>
                <time>2006-04-22T07:58:54Z</time>
            </trkpt>
            <trkpt lon="101.287251" lat="14.247465">
                <ele>14.557007</ele>
                <time>2006-04-22T07:58:58Z</time>
            </trkpt>
            <trkpt lon="101.286950" lat="14.247530">
                <ele>14.557007</ele>
                <time>2006-04-22T07:59:05Z</time>
            </trkpt>
            <trkpt lon="101.286328" lat="14.247959">
                <ele>14.076416</ele>
                <time>2006-04-22T07:59:22Z</time>
            </trkpt>
            <trkpt lon="101.285942" lat="14.248066">
                <ele>13.595825</ele>
                <time>2006-04-22T07:59:30Z</time>
            </trkpt>
            <trkpt lon="101.285663" lat="14.248302">
                <ele>13.595825</ele>
                <time>2006-04-22T07:59:39Z</time>
            </trkpt>
            <trkpt lon="101.285491" lat="14.248323">
                <ele>12.634399</ele>
                <time>2006-04-22T07:59:44Z</time>
            </trkpt>
            <trkpt lon="101.285191" lat="14.248345">
                <ele>14.076416</ele>
                <time>2006-04-22T07:59:58Z</time>
            </trkpt>
            <trkpt lon="101.284847" lat="14.248667">
                <ele>13.595825</ele>
                <time>2006-04-22T08:00:16Z</time>
            </trkpt>
            <trkpt lon="101.284525" lat="14.248989">
                <ele>13.115112</ele>
                <time>2006-04-22T08:00:32Z</time>
            </trkpt>
            <trkpt lon="101.284504" lat="14.249010">
                <ele>13.115112</ele>
                <time>2006-04-22T08:00:34Z</time>
            </trkpt>
            <trkpt lon="101.284547" lat="14.249010">
                <ele>13.595825</ele>
                <time>2006-04-22T08:00:42Z</time>
            </trkpt>
            <trkpt lon="101.284568" lat="14.249010">
                <ele>13.595825</ele>
                <time>2006-04-22T08:00:43Z</time>
            </trkpt>
            <trkpt lon="101.284997" lat="14.248538">
                <ele>12.153809</ele>
                <time>2006-04-22T08:00:59Z</time>
            </trkpt>
            <trkpt lon="101.285191" lat="14.248345">
                <ele>11.673218</ele>
                <time>2006-04-22T08:01:05Z</time>
            </trkpt>
            <trkpt lon="101.285427" lat="14.248302">
                <ele>11.192505</ele>
                <time>2006-04-22T08:01:11Z</time>
            </trkpt>
            <trkpt lon="101.285727" lat="14.248216">
                <ele>11.673218</ele>
                <time>2006-04-22T08:01:18Z</time>
            </trkpt>
            <trkpt lon="101.285791" lat="14.248152">
                <ele>11.673218</ele>
                <time>2006-04-22T08:01:20Z</time>
            </trkpt>
            <trkpt lon="101.286049" lat="14.248002">
                <ele>10.711792</ele>
                <time>2006-04-22T08:01:26Z</time>
            </trkpt>
            <trkpt lon="101.286285" lat="14.247937">
                <ele>9.750610</ele>
                <time>2006-04-22T08:01:31Z</time>
            </trkpt>
            <trkpt lon="101.286414" lat="14.247873">
                <ele>9.750610</ele>
                <time>2006-04-22T08:01:34Z</time>
            </trkpt>
            <trkpt lon="101.286950" lat="14.247465">
                <ele>9.750610</ele>
                <time>2006-04-22T08:01:47Z</time>
            </trkpt>
            <trkpt lon="101.287229" lat="14.247422">
                <ele>10.711792</ele>
                <time>2006-04-22T08:01:53Z</time>
            </trkpt>
            <trkpt lon="101.287465" lat="14.247530">
                <ele>12.153809</ele>
                <time>2006-04-22T08:01:58Z</time>
            </trkpt>
            <trkpt lon="101.287701" lat="14.247465">
                <ele>12.153809</ele>
                <time>2006-04-22T08:02:03Z</time>
            </trkpt>
            <trkpt lon="101.287851" lat="14.247336">
                <ele>12.153809</ele>
                <time>2006-04-22T08:02:07Z</time>
            </trkpt>
            <trkpt lon="101.288066" lat="14.247251">
                <ele>12.153809</ele>
                <time>2006-04-22T08:02:11Z</time>
            </trkpt>
            <trkpt lon="101.288152" lat="14.247251">
                <ele>12.634399</ele>
                <time>2006-04-22T08:02:13Z</time>
            </trkpt>
            <trkpt lon="101.288238" lat="14.247208">
                <ele>12.153809</ele>
                <time>2006-04-22T08:02:15Z</time>
            </trkpt>
            <trkpt lon="101.288259" lat="14.246693">
                <ele>11.192505</ele>
                <time>2006-04-22T08:02:28Z</time>
            </trkpt>
            <trkpt lon="101.288388" lat="14.246156">
                <ele>9.750610</ele>
                <time>2006-04-22T08:02:40Z</time>
            </trkpt>
            <trkpt lon="101.288688" lat="14.245555">
                <ele>9.269897</ele>
                <time>2006-04-22T08:02:56Z</time>
            </trkpt>
            <trkpt lon="101.289010" lat="14.245191">
                <ele>8.789185</ele>
                <time>2006-04-22T08:03:09Z</time>
            </trkpt>
            <trkpt lon="101.289268" lat="14.244826">
                <ele>9.269897</ele>
                <time>2006-04-22T08:03:22Z</time>
            </trkpt>
            <trkpt lon="101.289568" lat="14.244483">
                <ele>9.269897</ele>
                <time>2006-04-22T08:03:36Z</time>
            </trkpt>
            <trkpt lon="101.289546" lat="14.244483">
                <ele>12.153809</ele>
                <time>2006-04-22T08:04:28Z</time>
            </trkpt>
            <trkpt lon="101.289546" lat="14.244483">
                <ele>12.153809</ele>
                <time>2006-04-22T08:04:29Z</time>
            </trkpt>
            <trkpt lon="101.289546" lat="14.244161">
                <ele>11.192505</ele>
                <time>2006-04-22T08:04:41Z</time>
            </trkpt>
            <trkpt lon="101.289396" lat="14.243495">
                <ele>12.634399</ele>
                <time>2006-04-22T08:04:57Z</time>
            </trkpt>
            <trkpt lon="101.289332" lat="14.243088">
                <ele>13.595825</ele>
                <time>2006-04-22T08:05:11Z</time>
            </trkpt>
            <trkpt lon="101.289418" lat="14.242723">
                <ele>14.557007</ele>
                <time>2006-04-22T08:05:27Z</time>
            </trkpt>
            <trkpt lon="101.289611" lat="14.242423">
                <ele>15.037720</ele>
                <time>2006-04-22T08:05:42Z</time>
            </trkpt>
            <trkpt lon="101.289632" lat="14.242337">
                <ele>15.037720</ele>
                <time>2006-04-22T08:05:47Z</time>
            </trkpt>
            <trkpt lon="101.289546" lat="14.242058">
                <ele>16.479736</ele>
                <time>2006-04-22T08:06:05Z</time>
            </trkpt>
            <trkpt lon="101.289761" lat="14.241757">
                <ele>14.557007</ele>
                <time>2006-04-22T08:06:22Z</time>
            </trkpt>
            <trkpt lon="101.289804" lat="14.241264">
                <ele>12.634399</ele>
                <time>2006-04-22T08:06:47Z</time>
            </trkpt>
            <trkpt lon="101.289804" lat="14.241242">
                <ele>12.634399</ele>
                <time>2006-04-22T08:06:48Z</time>
            </trkpt>
            <trkpt lon="101.289697" lat="14.240727">
                <ele>13.115112</ele>
                <time>2006-04-22T08:07:12Z</time>
            </trkpt>
            <trkpt lon="101.289504" lat="14.239933">
                <ele>12.153809</ele>
                <time>2006-04-22T08:07:44Z</time>
            </trkpt>
            <trkpt lon="101.289096" lat="14.239118">
                <ele>12.153809</ele>
                <time>2006-04-22T08:08:09Z</time>
            </trkpt>
            <trkpt lon="101.288924" lat="14.239097">
                <ele>12.634399</ele>
                <time>2006-04-22T08:08:13Z</time>
            </trkpt>
            <trkpt lon="101.287980" lat="14.239075">
                <ele>13.115112</ele>
                <time>2006-04-22T08:08:30Z</time>
            </trkpt>
            <trkpt lon="101.286929" lat="14.239483">
                <ele>14.557007</ele>
                <time>2006-04-22T08:08:50Z</time>
            </trkpt>
            <trkpt lon="101.286092" lat="14.239869">
                <ele>15.037720</ele>
                <time>2006-04-22T08:09:10Z</time>
            </trkpt>
            <trkpt lon="101.286027" lat="14.239912">
                <ele>14.076416</ele>
                <time>2006-04-22T08:09:23Z</time>
            </trkpt>
            <trkpt lon="101.286070" lat="14.239783">
                <ele>10.711792</ele>
                <time>2006-04-22T08:11:26Z</time>
            </trkpt>
            <trkpt lon="101.286521" lat="14.239590">
                <ele>11.192505</ele>
                <time>2006-04-22T08:11:40Z</time>
            </trkpt>
            <trkpt lon="101.287379" lat="14.239118">
                <ele>10.711792</ele>
                <time>2006-04-22T08:11:59Z</time>
            </trkpt>
            <trkpt lon="101.287658" lat="14.238946">
                <ele>10.711792</ele>
                <time>2006-04-22T08:12:05Z</time>
            </trkpt>
            <trkpt lon="101.287808" lat="14.238882">
                <ele>10.231201</ele>
                <time>2006-04-22T08:12:08Z</time>
            </trkpt>
            <trkpt lon="101.288688" lat="14.238753">
                <ele>12.153809</ele>
                <time>2006-04-22T08:12:25Z</time>
            </trkpt>
            <trkpt lon="101.288838" lat="14.238689">
                <ele>11.673218</ele>
                <time>2006-04-22T08:12:29Z</time>
            </trkpt>
            <trkpt lon="101.289053" lat="14.239011">
                <ele>12.153809</ele>
                <time>2006-04-22T08:12:41Z</time>
            </trkpt>
            <trkpt lon="101.289418" lat="14.239526">
                <ele>15.518433</ele>
                <time>2006-04-22T08:13:04Z</time>
            </trkpt>
            <trkpt lon="101.289525" lat="14.239740">
                <ele>16.960449</ele>
                <time>2006-04-22T08:13:20Z</time>
            </trkpt>
            <trkpt lon="101.289718" lat="14.240406">
                <ele>16.960449</ele>
                <time>2006-04-22T08:13:49Z</time>
            </trkpt>
            <trkpt lon="101.289740" lat="14.240513">
                <ele>17.441162</ele>
                <time>2006-04-22T08:14:03Z</time>
            </trkpt>
            <trkpt lon="101.289718" lat="14.240470">
                <ele>17.921753</ele>
                <time>2006-04-22T08:14:08Z</time>
            </trkpt>
            <trkpt lon="101.289611" lat="14.239955">
                <ele>18.402344</ele>
                <time>2006-04-22T08:14:36Z</time>
            </trkpt>
            <trkpt lon="101.289332" lat="14.239161">
                <ele>18.402344</ele>
                <time>2006-04-22T08:15:04Z</time>
            </trkpt>
            <trkpt lon="101.289182" lat="14.238989">
                <ele>18.883057</ele>
                <time>2006-04-22T08:15:10Z</time>
            </trkpt>
            <trkpt lon="101.288924" lat="14.238989">
                <ele>18.402344</ele>
                <time>2006-04-22T08:15:16Z</time>
            </trkpt>
            <trkpt lon="101.288066" lat="14.238989">
                <ele>15.999023</ele>
                <time>2006-04-22T08:15:32Z</time>
            </trkpt>
            <trkpt lon="101.288023" lat="14.238989">
                <ele>15.999023</ele>
                <time>2006-04-22T08:15:33Z</time>
            </trkpt>
            <trkpt lon="101.287272" lat="14.239290">
                <ele>15.037720</ele>
                <time>2006-04-22T08:15:48Z</time>
            </trkpt>
            <trkpt lon="101.286864" lat="14.239461">
                <ele>14.557007</ele>
                <time>2006-04-22T08:15:57Z</time>
            </trkpt>
            <trkpt lon="101.286285" lat="14.239740">
                <ele>15.037720</ele>
                <time>2006-04-22T08:16:11Z</time>
            </trkpt>
            <trkpt lon="101.286221" lat="14.239869">
                <ele>15.518433</ele>
                <time>2006-04-22T08:16:19Z</time>
            </trkpt>
            <trkpt lon="101.286221" lat="14.239869">
                <ele>16.960449</ele>
                <time>2006-04-22T08:16:37Z</time>
            </trkpt>
            <trkpt lon="101.286156" lat="14.239805">
                <ele>12.634399</ele>
                <time>2006-04-22T08:24:34Z</time>
            </trkpt>
            <trkpt lon="101.286435" lat="14.239633">
                <ele>12.153809</ele>
                <time>2006-04-22T08:24:47Z</time>
            </trkpt>
            <trkpt lon="101.286671" lat="14.239526">
                <ele>11.673218</ele>
                <time>2006-04-22T08:25:02Z</time>
            </trkpt>
            <trkpt lon="101.287186" lat="14.239225">
                <ele>12.153809</ele>
                <time>2006-04-22T08:25:15Z</time>
            </trkpt>
            <trkpt lon="101.287744" lat="14.238775">
                <ele>10.711792</ele>
                <time>2006-04-22T08:25:33Z</time>
            </trkpt>
            <trkpt lon="101.287701" lat="14.238625">
                <ele>9.269897</ele>
                <time>2006-04-22T08:25:36Z</time>
            </trkpt>
            <trkpt lon="101.287465" lat="14.238389">
                <ele>8.308594</ele>
                <time>2006-04-22T08:25:44Z</time>
            </trkpt>
            <trkpt lon="101.287465" lat="14.238367">
                <ele>8.308594</ele>
                <time>2006-04-22T08:25:45Z</time>
            </trkpt>
            <trkpt lon="101.287358" lat="14.238174">
                <ele>9.269897</ele>
                <time>2006-04-22T08:26:00Z</time>
            </trkpt>
            <trkpt lon="101.287251" lat="14.238024">
                <ele>9.750610</ele>
                <time>2006-04-22T08:26:16Z</time>
            </trkpt>
            <trkpt lon="101.287079" lat="14.237788">
                <ele>9.269897</ele>
                <time>2006-04-22T08:26:31Z</time>
            </trkpt>
            <trkpt lon="101.286993" lat="14.237573">
                <ele>9.269897</ele>
                <time>2006-04-22T08:26:48Z</time>
            </trkpt>
            <trkpt lon="101.286929" lat="14.237359">
                <ele>9.269897</ele>
                <time>2006-04-22T08:27:01Z</time>
            </trkpt>
            <trkpt lon="101.286843" lat="14.237208">
                <ele>9.269897</ele>
                <time>2006-04-22T08:27:12Z</time>
            </trkpt>
            <trkpt lon="101.286800" lat="14.237123">
                <ele>9.269897</ele>
                <time>2006-04-22T08:27:24Z</time>
            </trkpt>
            <trkpt lon="101.286693" lat="14.236972">
                <ele>8.789185</ele>
                <time>2006-04-22T08:27:43Z</time>
            </trkpt>
            <trkpt lon="101.286650" lat="14.236865">
                <ele>9.269897</ele>
                <time>2006-04-22T08:27:59Z</time>
            </trkpt>
            <trkpt lon="101.286714" lat="14.236822">
                <ele>8.789185</ele>
                <time>2006-04-22T08:28:12Z</time>
            </trkpt>
            <trkpt lon="101.286821" lat="14.236758">
                <ele>7.827881</ele>
                <time>2006-04-22T08:28:29Z</time>
            </trkpt>
            <trkpt lon="101.286950" lat="14.236672">
                <ele>8.308594</ele>
                <time>2006-04-22T08:28:47Z</time>
            </trkpt>
            <trkpt lon="101.286886" lat="14.236479">
                <ele>8.308594</ele>
                <time>2006-04-22T08:29:07Z</time>
            </trkpt>
            <trkpt lon="101.286800" lat="14.236243">
                <ele>8.789185</ele>
                <time>2006-04-22T08:29:30Z</time>
            </trkpt>
            <trkpt lon="101.286757" lat="14.236178">
                <ele>9.269897</ele>
                <time>2006-04-22T08:29:49Z</time>
            </trkpt>
            <trkpt lon="101.286693" lat="14.235921">
                <ele>8.308594</ele>
                <time>2006-04-22T08:30:15Z</time>
            </trkpt>
            <trkpt lon="101.286736" lat="14.235857">
                <ele>9.269897</ele>
                <time>2006-04-22T08:30:31Z</time>
            </trkpt>
            <trkpt lon="101.286714" lat="14.235835">
                <ele>9.269897</ele>
                <time>2006-04-22T08:30:52Z</time>
            </trkpt>
            <trkpt lon="101.286693" lat="14.235771">
                <ele>8.789185</ele>
                <time>2006-04-22T08:30:56Z</time>
            </trkpt>
            <trkpt lon="101.286500" lat="14.235299">
                <ele>8.789185</ele>
                <time>2006-04-22T08:31:13Z</time>
            </trkpt>
            <trkpt lon="101.286435" lat="14.235213">
                <ele>9.750610</ele>
                <time>2006-04-22T08:31:24Z</time>
            </trkpt>
            <trkpt lon="101.286285" lat="14.235213">
                <ele>11.673218</ele>
                <time>2006-04-22T08:32:21Z</time>
            </trkpt>
            <trkpt lon="101.285770" lat="14.235320">
                <ele>10.231201</ele>
                <time>2006-04-22T08:32:36Z</time>
            </trkpt>
            <trkpt lon="101.285019" lat="14.235492">
                <ele>9.269897</ele>
                <time>2006-04-22T08:32:54Z</time>
            </trkpt>
            <trkpt lon="101.284375" lat="14.235642">
                <ele>8.308594</ele>
                <time>2006-04-22T08:33:10Z</time>
            </trkpt>
            <trkpt lon="101.283603" lat="14.235792">
                <ele>8.308594</ele>
                <time>2006-04-22T08:33:29Z</time>
            </trkpt>
            <trkpt lon="101.282852" lat="14.235599">
                <ele>9.269897</ele>
                <time>2006-04-22T08:33:48Z</time>
            </trkpt>
            <trkpt lon="101.282444" lat="14.235320">
                <ele>9.269897</ele>
                <time>2006-04-22T08:34:02Z</time>
            </trkpt>
            <trkpt lon="101.282272" lat="14.235384">
                <ele>7.827881</ele>
                <time>2006-04-22T08:34:06Z</time>
            </trkpt>
            <trkpt lon="101.281993" lat="14.235449">
                <ele>7.827881</ele>
                <time>2006-04-22T08:34:12Z</time>
            </trkpt>
            <trkpt lon="101.281350" lat="14.235535">
                <ele>7.347168</ele>
                <time>2006-04-22T08:34:28Z</time>
            </trkpt>
            <trkpt lon="101.280620" lat="14.235642">
                <ele>6.866455</ele>
                <time>2006-04-22T08:34:47Z</time>
            </trkpt>
            <trkpt lon="101.280577" lat="14.235663">
                <ele>6.866455</ele>
                <time>2006-04-22T08:34:48Z</time>
            </trkpt>
            <trkpt lon="101.279976" lat="14.235749">
                <ele>6.385864</ele>
                <time>2006-04-22T08:35:05Z</time>
            </trkpt>
            <trkpt lon="101.279762" lat="14.235792">
                <ele>6.385864</ele>
                <time>2006-04-22T08:35:12Z</time>
            </trkpt>
            <trkpt lon="101.279655" lat="14.235985">
                <ele>5.424561</ele>
                <time>2006-04-22T08:35:21Z</time>
            </trkpt>
            <trkpt lon="101.279333" lat="14.236157">
                <ele>6.385864</ele>
                <time>2006-04-22T08:35:33Z</time>
            </trkpt>
            <trkpt lon="101.279333" lat="14.236243">
                <ele>6.866455</ele>
                <time>2006-04-22T08:35:37Z</time>
            </trkpt>
            <trkpt lon="101.279333" lat="14.236307">
                <ele>7.827881</ele>
                <time>2006-04-22T08:35:40Z</time>
            </trkpt>
            <trkpt lon="101.279247" lat="14.236329">
                <ele>8.308594</ele>
                <time>2006-04-22T08:35:45Z</time>
            </trkpt>
            <trkpt lon="101.278689" lat="14.236457">
                <ele>7.347168</ele>
                <time>2006-04-22T08:36:01Z</time>
            </trkpt>
            <trkpt lon="101.277938" lat="14.236693">
                <ele>8.308594</ele>
                <time>2006-04-22T08:36:20Z</time>
            </trkpt>
            <trkpt lon="101.277766" lat="14.236736">
                <ele>9.750610</ele>
                <time>2006-04-22T08:36:29Z</time>
            </trkpt>
            <trkpt lon="101.277637" lat="14.236286">
                <ele>10.231201</ele>
                <time>2006-04-22T08:36:45Z</time>
            </trkpt>
            <trkpt lon="101.277530" lat="14.235985">
                <ele>11.192505</ele>
                <time>2006-04-22T08:36:54Z</time>
            </trkpt>
            <trkpt lon="101.277208" lat="14.235320">
                <ele>10.711792</ele>
                <time>2006-04-22T08:37:11Z</time>
            </trkpt>
            <trkpt lon="101.277058" lat="14.235084">
                <ele>10.711792</ele>
                <time>2006-04-22T08:37:17Z</time>
            </trkpt>
            <trkpt lon="101.277015" lat="14.234998">
                <ele>10.711792</ele>
                <time>2006-04-22T08:37:19Z</time>
            </trkpt>
            <trkpt lon="101.276565" lat="14.234290">
                <ele>10.231201</ele>
                <time>2006-04-22T08:37:37Z</time>
            </trkpt>
            <trkpt lon="101.276221" lat="14.233732">
                <ele>9.269897</ele>
                <time>2006-04-22T08:37:53Z</time>
            </trkpt>
            <trkpt lon="101.275728" lat="14.232917">
                <ele>8.308594</ele>
                <time>2006-04-22T08:38:15Z</time>
            </trkpt>
            <trkpt lon="101.275406" lat="14.232423">
                <ele>7.827881</ele>
                <time>2006-04-22T08:38:30Z</time>
            </trkpt>
            <trkpt lon="101.275127" lat="14.231951">
                <ele>7.347168</ele>
                <time>2006-04-22T08:38:43Z</time>
            </trkpt>
            <trkpt lon="101.274805" lat="14.231436">
                <ele>8.789185</ele>
                <time>2006-04-22T08:38:58Z</time>
            </trkpt>
            <trkpt lon="101.274719" lat="14.231329">
                <ele>8.789185</ele>
                <time>2006-04-22T08:39:02Z</time>
            </trkpt>
            <trkpt lon="101.274719" lat="14.231393">
                <ele>9.269897</ele>
                <time>2006-04-22T08:39:06Z</time>
            </trkpt>
            <trkpt lon="101.274977" lat="14.231801">
                <ele>9.750610</ele>
                <time>2006-04-22T08:39:18Z</time>
            </trkpt>
            <trkpt lon="101.275492" lat="14.232638">
                <ele>9.269897</ele>
                <time>2006-04-22T08:39:34Z</time>
            </trkpt>
            <trkpt lon="101.275663" lat="14.232895">
                <ele>9.750610</ele>
                <time>2006-04-22T08:39:40Z</time>
            </trkpt>
            <trkpt lon="101.276093" lat="14.233603">
                <ele>9.269897</ele>
                <time>2006-04-22T08:39:55Z</time>
            </trkpt>
            <trkpt lon="101.276822" lat="14.234784">
                <ele>8.789185</ele>
                <time>2006-04-22T08:40:17Z</time>
            </trkpt>
            <trkpt lon="101.277423" lat="14.235835">
                <ele>8.308594</ele>
                <time>2006-04-22T08:40:37Z</time>
            </trkpt>
            <trkpt lon="101.277723" lat="14.236500">
                <ele>9.269897</ele>
                <time>2006-04-22T08:40:53Z</time>
            </trkpt>
            <trkpt lon="101.277938" lat="14.237015">
                <ele>10.231201</ele>
                <time>2006-04-22T08:41:07Z</time>
            </trkpt>
            <trkpt lon="101.278024" lat="14.237294">
                <ele>10.711792</ele>
                <time>2006-04-22T08:41:13Z</time>
            </trkpt>
            <trkpt lon="101.278088" lat="14.237702">
                <ele>10.231201</ele>
                <time>2006-04-22T08:41:20Z</time>
            </trkpt>
            <trkpt lon="101.277895" lat="14.238625">
                <ele>10.231201</ele>
                <time>2006-04-22T08:41:36Z</time>
            </trkpt>
            <trkpt lon="101.277616" lat="14.239676">
                <ele>10.231201</ele>
                <time>2006-04-22T08:41:55Z</time>
            </trkpt>
            <trkpt lon="101.277359" lat="14.240663">
                <ele>8.789185</ele>
                <time>2006-04-22T08:42:13Z</time>
            </trkpt>
            <trkpt lon="101.277058" lat="14.241800">
                <ele>7.827881</ele>
                <time>2006-04-22T08:42:35Z</time>
            </trkpt>
            <trkpt lon="101.276801" lat="14.242809">
                <ele>8.789185</ele>
                <time>2006-04-22T08:42:56Z</time>
            </trkpt>
            <trkpt lon="101.276586" lat="14.243689">
                <ele>8.308594</ele>
                <time>2006-04-22T08:43:13Z</time>
            </trkpt>
            <trkpt lon="101.276329" lat="14.244633">
                <ele>8.789185</ele>
                <time>2006-04-22T08:43:29Z</time>
            </trkpt>
            <trkpt lon="101.276243" lat="14.244804">
                <ele>8.308594</ele>
                <time>2006-04-22T08:43:32Z</time>
            </trkpt>
            <trkpt lon="101.275427" lat="14.245985">
                <ele>9.750610</ele>
                <time>2006-04-22T08:43:55Z</time>
            </trkpt>
            <trkpt lon="101.275213" lat="14.246264">
                <ele>10.711792</ele>
                <time>2006-04-22T08:44:05Z</time>
            </trkpt>
            <trkpt lon="101.275191" lat="14.246349">
                <ele>11.192505</ele>
                <time>2006-04-22T08:44:11Z</time>
            </trkpt>
            <trkpt lon="101.275256" lat="14.246371">
                <ele>11.192505</ele>
                <time>2006-04-22T08:44:16Z</time>
            </trkpt>
            <trkpt lon="101.275342" lat="14.246113">
                <ele>10.231201</ele>
                <time>2006-04-22T08:44:26Z</time>
            </trkpt>
            <trkpt lon="101.275234" lat="14.246006">
                <ele>10.231201</ele>
                <time>2006-04-22T08:44:30Z</time>
            </trkpt>
            <trkpt lon="101.274290" lat="14.245834">
                <ele>9.750610</ele>
                <time>2006-04-22T08:44:48Z</time>
            </trkpt>
            <trkpt lon="101.273260" lat="14.245641">
                <ele>7.347168</ele>
                <time>2006-04-22T08:45:07Z</time>
            </trkpt>
            <trkpt lon="101.273067" lat="14.245577">
                <ele>5.905273</ele>
                <time>2006-04-22T08:45:17Z</time>
            </trkpt>
            <trkpt lon="101.272659" lat="14.245448">
                <ele>6.385864</ele>
                <time>2006-04-22T08:45:32Z</time>
            </trkpt>
            <trkpt lon="101.271758" lat="14.245276">
                <ele>7.347168</ele>
                <time>2006-04-22T08:45:50Z</time>
            </trkpt>
            <trkpt lon="101.270728" lat="14.245276">
                <ele>7.347168</ele>
                <time>2006-04-22T08:46:08Z</time>
            </trkpt>
            <trkpt lon="101.269913" lat="14.245791">
                <ele>7.347168</ele>
                <time>2006-04-22T08:46:24Z</time>
            </trkpt>
            <trkpt lon="101.269355" lat="14.246306">
                <ele>7.827881</ele>
                <time>2006-04-22T08:46:37Z</time>
            </trkpt>
            <trkpt lon="101.269248" lat="14.246650">
                <ele>7.827881</ele>
                <time>2006-04-22T08:46:43Z</time>
            </trkpt>
            <trkpt lon="101.269011" lat="14.247723">
                <ele>7.827881</ele>
                <time>2006-04-22T08:47:01Z</time>
            </trkpt>
            <trkpt lon="101.268325" lat="14.248774">
                <ele>8.789185</ele>
                <time>2006-04-22T08:47:22Z</time>
            </trkpt>
            <trkpt lon="101.267595" lat="14.249911">
                <ele>9.750610</ele>
                <time>2006-04-22T08:47:44Z</time>
            </trkpt>
            <trkpt lon="101.267424" lat="14.250169">
                <ele>9.750610</ele>
                <time>2006-04-22T08:47:50Z</time>
            </trkpt>
            <trkpt lon="101.267488" lat="14.250383">
                <ele>9.269897</ele>
                <time>2006-04-22T08:47:56Z</time>
            </trkpt>
            <trkpt lon="101.267595" lat="14.250362">
                <ele>9.269897</ele>
                <time>2006-04-22T08:47:58Z</time>
            </trkpt>
            <trkpt lon="101.268389" lat="14.250147">
                <ele>8.789185</ele>
                <time>2006-04-22T08:48:13Z</time>
            </trkpt>
            <trkpt lon="101.268797" lat="14.250040">
                <ele>8.789185</ele>
                <time>2006-04-22T08:48:21Z</time>
            </trkpt>
            <trkpt lon="101.268883" lat="14.250212">
                <ele>9.750610</ele>
                <time>2006-04-22T08:48:29Z</time>
            </trkpt>
            <trkpt lon="101.268926" lat="14.250298">
                <ele>10.231201</ele>
                <time>2006-04-22T08:48:31Z</time>
            </trkpt>
            <trkpt lon="101.269011" lat="14.250469">
                <ele>10.231201</ele>
                <time>2006-04-22T08:48:35Z</time>
            </trkpt>
            <trkpt lon="101.269548" lat="14.250813">
                <ele>9.750610</ele>
                <time>2006-04-22T08:48:48Z</time>
            </trkpt>
            <trkpt lon="101.269591" lat="14.250813">
                <ele>9.750610</ele>
                <time>2006-04-22T08:48:49Z</time>
            </trkpt>
            <trkpt lon="101.269677" lat="14.250834">
                <ele>9.750610</ele>
                <time>2006-04-22T08:48:51Z</time>
            </trkpt>
            <trkpt lon="101.269827" lat="14.250941">
                <ele>9.750610</ele>
                <time>2006-04-22T08:48:55Z</time>
            </trkpt>
            <trkpt lon="101.269934" lat="14.251070">
                <ele>9.750610</ele>
                <time>2006-04-22T08:48:58Z</time>
            </trkpt>
            <trkpt lon="101.270256" lat="14.251328">
                <ele>9.750610</ele>
                <time>2006-04-22T08:49:07Z</time>
            </trkpt>
            <trkpt lon="101.270256" lat="14.251413">
                <ele>9.750610</ele>
                <time>2006-04-22T08:49:09Z</time>
            </trkpt>
            <trkpt lon="101.270278" lat="14.251499">
                <ele>9.750610</ele>
                <time>2006-04-22T08:49:11Z</time>
            </trkpt>
            <trkpt lon="101.270342" lat="14.251521">
                <ele>9.750610</ele>
                <time>2006-04-22T08:49:13Z</time>
            </trkpt>
            <trkpt lon="101.270449" lat="14.251521">
                <ele>9.750610</ele>
                <time>2006-04-22T08:49:15Z</time>
            </trkpt>
            <trkpt lon="101.270750" lat="14.251800">
                <ele>9.750610</ele>
                <time>2006-04-22T08:49:24Z</time>
            </trkpt>
            <trkpt lon="101.270750" lat="14.251757">
                <ele>11.192505</ele>
                <time>2006-04-22T08:49:29Z</time>
            </trkpt>
            <trkpt lon="101.270707" lat="14.251757">
                <ele>10.711792</ele>
                <time>2006-04-22T08:49:33Z</time>
            </trkpt>
            <trkpt lon="101.270642" lat="14.251735">
                <ele>10.231201</ele>
                <time>2006-04-22T08:49:40Z</time>
            </trkpt>
            <trkpt lon="101.270492" lat="14.252036">
                <ele>10.711792</ele>
                <time>2006-04-22T08:49:55Z</time>
            </trkpt>
            <trkpt lon="101.270492" lat="14.252357">
                <ele>11.192505</ele>
                <time>2006-04-22T08:50:12Z</time>
            </trkpt>
            <trkpt lon="101.270556" lat="14.252529">
                <ele>10.231201</ele>
                <time>2006-04-22T08:50:26Z</time>
            </trkpt>
            <trkpt lon="101.270664" lat="14.252615">
                <ele>10.231201</ele>
                <time>2006-04-22T08:50:32Z</time>
            </trkpt>
            <trkpt lon="101.270986" lat="14.252765">
                <ele>11.192505</ele>
                <time>2006-04-22T08:50:47Z</time>
            </trkpt>
            <trkpt lon="101.271350" lat="14.253023">
                <ele>9.750610</ele>
                <time>2006-04-22T08:51:04Z</time>
            </trkpt>
            <trkpt lon="101.271372" lat="14.253023">
                <ele>10.231201</ele>
                <time>2006-04-22T08:51:05Z</time>
            </trkpt>
            <trkpt lon="101.271694" lat="14.253173">
                <ele>9.269897</ele>
                <time>2006-04-22T08:51:18Z</time>
            </trkpt>
            <trkpt lon="101.272166" lat="14.253366">
                <ele>8.789185</ele>
                <time>2006-04-22T08:51:33Z</time>
            </trkpt>
            <trkpt lon="101.272423" lat="14.253452">
                <ele>8.308594</ele>
                <time>2006-04-22T08:51:39Z</time>
            </trkpt>
            <trkpt lon="101.272573" lat="14.253473">
                <ele>8.308594</ele>
                <time>2006-04-22T08:51:42Z</time>
            </trkpt>
            <trkpt lon="101.273711" lat="14.253302">
                <ele>7.347168</ele>
                <time>2006-04-22T08:52:02Z</time>
            </trkpt>
            <trkpt lon="101.274698" lat="14.253130">
                <ele>8.789185</ele>
                <time>2006-04-22T08:52:21Z</time>
            </trkpt>
            <trkpt lon="101.274912" lat="14.253109">
                <ele>9.269897</ele>
                <time>2006-04-22T08:52:25Z</time>
            </trkpt>
            <trkpt lon="101.275084" lat="14.253194">
                <ele>9.269897</ele>
                <time>2006-04-22T08:52:29Z</time>
            </trkpt>
            <trkpt lon="101.275899" lat="14.253795">
                <ele>8.789185</ele>
                <time>2006-04-22T08:52:49Z</time>
            </trkpt>
            <trkpt lon="101.275942" lat="14.253817">
                <ele>9.269897</ele>
                <time>2006-04-22T08:52:50Z</time>
            </trkpt>
            <trkpt lon="101.276586" lat="14.254031">
                <ele>9.269897</ele>
                <time>2006-04-22T08:53:04Z</time>
            </trkpt>
            <trkpt lon="101.276715" lat="14.254160">
                <ele>8.789185</ele>
                <time>2006-04-22T08:53:08Z</time>
            </trkpt>
            <trkpt lon="101.277037" lat="14.254224">
                <ele>8.789185</ele>
                <time>2006-04-22T08:53:16Z</time>
            </trkpt>
            <trkpt lon="101.277852" lat="14.253902">
                <ele>9.750610</ele>
                <time>2006-04-22T08:53:35Z</time>
            </trkpt>
            <trkpt lon="101.278088" lat="14.253795">
                <ele>9.269897</ele>
                <time>2006-04-22T08:53:40Z</time>
            </trkpt>
            <trkpt lon="101.278281" lat="14.253752">
                <ele>9.269897</ele>
                <time>2006-04-22T08:53:44Z</time>
            </trkpt>
            <trkpt lon="101.278474" lat="14.253860">
                <ele>8.308594</ele>
                <time>2006-04-22T08:53:49Z</time>
            </trkpt>
            <trkpt lon="101.278903" lat="14.254460">
                <ele>8.308594</ele>
                <time>2006-04-22T08:54:05Z</time>
            </trkpt>
            <trkpt lon="101.278989" lat="14.254439">
                <ele>8.789185</ele>
                <time>2006-04-22T08:54:15Z</time>
            </trkpt>
            <trkpt lon="101.278968" lat="14.254439">
                <ele>11.192505</ele>
                <time>2006-04-22T08:54:33Z</time>
            </trkpt>
            <trkpt lon="101.278968" lat="14.254439">
                <ele>11.192505</ele>
                <time>2006-04-22T08:54:37Z</time>
            </trkpt>
            <trkpt lon="101.279097" lat="14.254525">
                <ele>10.711792</ele>
                <time>2006-04-22T08:54:54Z</time>
            </trkpt>
            <trkpt lon="101.279097" lat="14.254525">
                <ele>10.711792</ele>
                <time>2006-04-22T08:54:57Z</time>
            </trkpt>
            <trkpt lon="101.279333" lat="14.254332">
                <ele>10.231201</ele>
                <time>2006-04-22T08:55:08Z</time>
            </trkpt>
            <trkpt lon="101.279333" lat="14.254224">
                <ele>10.711792</ele>
                <time>2006-04-22T08:55:12Z</time>
            </trkpt>
            <trkpt lon="101.279225" lat="14.253752">
                <ele>11.192505</ele>
                <time>2006-04-22T08:55:27Z</time>
            </trkpt>
            <trkpt lon="101.279204" lat="14.253731">
                <ele>10.711792</ele>
                <time>2006-04-22T08:55:31Z</time>
            </trkpt>
            <trkpt lon="101.279268" lat="14.253795">
                <ele>11.192505</ele>
                <time>2006-04-22T08:55:40Z</time>
            </trkpt>
            <trkpt lon="101.279290" lat="14.253924">
                <ele>11.192505</ele>
                <time>2006-04-22T08:55:44Z</time>
            </trkpt>
            <trkpt lon="101.279311" lat="14.253988">
                <ele>11.192505</ele>
                <time>2006-04-22T08:55:54Z</time>
            </trkpt>
            <trkpt lon="101.279333" lat="14.253988">
                <ele>12.153809</ele>
                <time>2006-04-22T08:56:10Z</time>
            </trkpt>
            <trkpt lon="101.279247" lat="14.253709">
                <ele>12.153809</ele>
                <time>2006-04-22T08:56:24Z</time>
            </trkpt>
            <trkpt lon="101.279311" lat="14.253902">
                <ele>12.153809</ele>
                <time>2006-04-22T08:56:32Z</time>
            </trkpt>
            <trkpt lon="101.279311" lat="14.253945">
                <ele>12.153809</ele>
                <time>2006-04-22T08:56:33Z</time>
            </trkpt>
            <trkpt lon="101.279333" lat="14.254310">
                <ele>11.192505</ele>
                <time>2006-04-22T08:56:42Z</time>
            </trkpt>
            <trkpt lon="101.279054" lat="14.254482">
                <ele>10.231201</ele>
                <time>2006-04-22T08:56:50Z</time>
            </trkpt>
            <trkpt lon="101.279118" lat="14.254568">
                <ele>10.231201</ele>
                <time>2006-04-22T08:56:56Z</time>
            </trkpt>
            <trkpt lon="101.279075" lat="14.254503">
                <ele>9.750610</ele>
                <time>2006-04-22T08:57:03Z</time>
            </trkpt>
            <trkpt lon="101.278818" lat="14.254289">
                <ele>9.750610</ele>
                <time>2006-04-22T08:57:11Z</time>
            </trkpt>
            <trkpt lon="101.278474" lat="14.253902">
                <ele>10.711792</ele>
                <time>2006-04-22T08:57:24Z</time>
            </trkpt>
            <trkpt lon="101.278474" lat="14.253860">
                <ele>13.115112</ele>
                <time>2006-04-22T08:57:50Z</time>
            </trkpt>
            <trkpt lon="101.278453" lat="14.253817">
                <ele>13.115112</ele>
                <time>2006-04-22T08:58:16Z</time>
            </trkpt>
            <trkpt lon="101.278346" lat="14.253774">
                <ele>12.153809</ele>
                <time>2006-04-22T08:58:23Z</time>
            </trkpt>
            <trkpt lon="101.277916" lat="14.253881">
                <ele>11.673218</ele>
                <time>2006-04-22T08:58:34Z</time>
            </trkpt>
            <trkpt lon="101.277015" lat="14.254267">
                <ele>10.231201</ele>
                <time>2006-04-22T08:58:53Z</time>
            </trkpt>
            <trkpt lon="101.276801" lat="14.254353">
                <ele>10.231201</ele>
                <time>2006-04-22T08:58:58Z</time>
            </trkpt>
            <trkpt lon="101.276672" lat="14.254439">
                <ele>9.750610</ele>
                <time>2006-04-22T08:59:02Z</time>
            </trkpt>
            <trkpt lon="101.276178" lat="14.254632">
                <ele>9.269897</ele>
                <time>2006-04-22T08:59:17Z</time>
            </trkpt>
            <trkpt lon="101.276157" lat="14.254653">
                <ele>8.789185</ele>
                <time>2006-04-22T08:59:18Z</time>
            </trkpt>
            <trkpt lon="101.276157" lat="14.254997">
                <ele>9.750610</ele>
                <time>2006-04-22T08:59:28Z</time>
            </trkpt>
            <trkpt lon="101.276221" lat="14.255447">
                <ele>9.750610</ele>
                <time>2006-04-22T08:59:42Z</time>
            </trkpt>
            <trkpt lon="101.276243" lat="14.255447">
                <ele>10.711792</ele>
                <time>2006-04-22T08:59:54Z</time>
            </trkpt>
            <trkpt lon="101.276286" lat="14.255683">
                <ele>10.231201</ele>
                <time>2006-04-22T09:00:13Z</time>
            </trkpt>
            <trkpt lon="101.276500" lat="14.256177">
                <ele>11.192505</ele>
                <time>2006-04-22T09:00:28Z</time>
            </trkpt>
            <trkpt lon="101.276565" lat="14.256263">
                <ele>13.595825</ele>
                <time>2006-04-22T09:00:43Z</time>
            </trkpt>
            <trkpt lon="101.276608" lat="14.256499">
                <ele>15.999023</ele>
                <time>2006-04-22T09:00:51Z</time>
            </trkpt>
            <trkpt lon="101.276650" lat="14.256628">
                <ele>16.960449</ele>
                <time>2006-04-22T09:00:54Z</time>
            </trkpt>
            <trkpt lon="101.276715" lat="14.257057">
                <ele>17.441162</ele>
                <time>2006-04-22T09:01:05Z</time>
            </trkpt>
            <trkpt lon="101.276865" lat="14.257700">
                <ele>15.518433</ele>
                <time>2006-04-22T09:01:23Z</time>
            </trkpt>
            <trkpt lon="101.277080" lat="14.258130">
                <ele>15.037720</ele>
                <time>2006-04-22T09:01:38Z</time>
            </trkpt>
            <trkpt lon="101.277101" lat="14.258173">
                <ele>15.037720</ele>
                <time>2006-04-22T09:01:39Z</time>
            </trkpt>
            <trkpt lon="101.277037" lat="14.258366">
                <ele>14.557007</ele>
                <time>2006-04-22T09:01:52Z</time>
            </trkpt>
            <trkpt lon="101.276822" lat="14.258473">
                <ele>14.076416</ele>
                <time>2006-04-22T09:01:58Z</time>
            </trkpt>
            <trkpt lon="101.276779" lat="14.258559">
                <ele>14.076416</ele>
                <time>2006-04-22T09:02:00Z</time>
            </trkpt>
            <trkpt lon="101.276135" lat="14.258945">
                <ele>12.634399</ele>
                <time>2006-04-22T09:02:16Z</time>
            </trkpt>
            <trkpt lon="101.276007" lat="14.258966">
                <ele>12.153809</ele>
                <time>2006-04-22T09:02:19Z</time>
            </trkpt>
            <trkpt lon="101.275470" lat="14.259310">
                <ele>10.711792</ele>
                <time>2006-04-22T09:02:32Z</time>
            </trkpt>
            <trkpt lon="101.275427" lat="14.259353">
                <ele>11.192505</ele>
                <time>2006-04-22T09:02:33Z</time>
            </trkpt>
            <trkpt lon="101.274633" lat="14.259331">
                <ele>7.827881</ele>
                <time>2006-04-22T09:02:49Z</time>
            </trkpt>
            <trkpt lon="101.274590" lat="14.259396">
                <ele>7.827881</ele>
                <time>2006-04-22T09:02:53Z</time>
            </trkpt>
            <trkpt lon="101.274526" lat="14.259760">
                <ele>9.750610</ele>
                <time>2006-04-22T09:03:08Z</time>
            </trkpt>
            <trkpt lon="101.274590" lat="14.260640">
                <ele>10.711792</ele>
                <time>2006-04-22T09:03:28Z</time>
            </trkpt>
            <trkpt lon="101.274462" lat="14.261391">
                <ele>11.673218</ele>
                <time>2006-04-22T09:03:43Z</time>
            </trkpt>
            <trkpt lon="101.274440" lat="14.261563">
                <ele>11.673218</ele>
                <time>2006-04-22T09:03:46Z</time>
            </trkpt>
            <trkpt lon="101.274590" lat="14.261799">
                <ele>11.673218</ele>
                <time>2006-04-22T09:03:51Z</time>
            </trkpt>
            <trkpt lon="101.275535" lat="14.262700">
                <ele>11.673218</ele>
                <time>2006-04-22T09:04:13Z</time>
            </trkpt>
            <trkpt lon="101.275599" lat="14.262786">
                <ele>11.673218</ele>
                <time>2006-04-22T09:04:15Z</time>
            </trkpt>
            <trkpt lon="101.275578" lat="14.263194">
                <ele>11.192505</ele>
                <time>2006-04-22T09:04:23Z</time>
            </trkpt>
            <trkpt lon="101.275535" lat="14.263365">
                <ele>11.192505</ele>
                <time>2006-04-22T09:04:26Z</time>
            </trkpt>
            <trkpt lon="101.275513" lat="14.263580">
                <ele>11.192505</ele>
                <time>2006-04-22T09:04:30Z</time>
            </trkpt>
            <trkpt lon="101.275599" lat="14.263902">
                <ele>11.192505</ele>
                <time>2006-04-22T09:04:36Z</time>
            </trkpt>
            <trkpt lon="101.275556" lat="14.264116">
                <ele>11.673218</ele>
                <time>2006-04-22T09:04:40Z</time>
            </trkpt>
            <trkpt lon="101.274719" lat="14.264696">
                <ele>13.595825</ele>
                <time>2006-04-22T09:04:58Z</time>
            </trkpt>
            <trkpt lon="101.273990" lat="14.264889">
                <ele>13.595825</ele>
                <time>2006-04-22T09:05:10Z</time>
            </trkpt>
            <trkpt lon="101.273475" lat="14.264953">
                <ele>13.115112</ele>
                <time>2006-04-22T09:05:18Z</time>
            </trkpt>
            <trkpt lon="101.273217" lat="14.265039">
                <ele>12.634399</ele>
                <time>2006-04-22T09:05:22Z</time>
            </trkpt>
            <trkpt lon="101.272123" lat="14.265854">
                <ele>12.153809</ele>
                <time>2006-04-22T09:05:44Z</time>
            </trkpt>
            <trkpt lon="101.271565" lat="14.266284">
                <ele>13.115112</ele>
                <time>2006-04-22T09:05:59Z</time>
            </trkpt>
            <trkpt lon="101.271544" lat="14.266369">
                <ele>13.115112</ele>
                <time>2006-04-22T09:06:02Z</time>
            </trkpt>
            <trkpt lon="101.271930" lat="14.266927">
                <ele>13.115112</ele>
                <time>2006-04-22T09:06:16Z</time>
            </trkpt>
            <trkpt lon="101.272380" lat="14.267764">
                <ele>13.115112</ele>
                <time>2006-04-22T09:06:32Z</time>
            </trkpt>
            <trkpt lon="101.272788" lat="14.269116">
                <ele>12.634399</ele>
                <time>2006-04-22T09:06:54Z</time>
            </trkpt>
            <trkpt lon="101.273067" lat="14.270403">
                <ele>12.153809</ele>
                <time>2006-04-22T09:07:14Z</time>
            </trkpt>
            <trkpt lon="101.273389" lat="14.271648">
                <ele>11.673218</ele>
                <time>2006-04-22T09:07:34Z</time>
            </trkpt>
            <trkpt lon="101.273582" lat="14.272549">
                <ele>11.192505</ele>
                <time>2006-04-22T09:07:51Z</time>
            </trkpt>
            <trkpt lon="101.273882" lat="14.273794">
                <ele>12.153809</ele>
                <time>2006-04-22T09:08:12Z</time>
            </trkpt>
            <trkpt lon="101.274140" lat="14.274867">
                <ele>12.153809</ele>
                <time>2006-04-22T09:08:32Z</time>
            </trkpt>
            <trkpt lon="101.274333" lat="14.275661">
                <ele>12.634399</ele>
                <time>2006-04-22T09:08:46Z</time>
            </trkpt>
            <trkpt lon="101.274676" lat="14.277055">
                <ele>13.595825</ele>
                <time>2006-04-22T09:09:09Z</time>
            </trkpt>
            <trkpt lon="101.275020" lat="14.278471">
                <ele>14.076416</ele>
                <time>2006-04-22T09:09:32Z</time>
            </trkpt>
            <trkpt lon="101.275320" lat="14.279737">
                <ele>14.557007</ele>
                <time>2006-04-22T09:09:54Z</time>
            </trkpt>
            <trkpt lon="101.275685" lat="14.281304">
                <ele>15.037720</ele>
                <time>2006-04-22T09:10:22Z</time>
            </trkpt>
            <trkpt lon="101.275942" lat="14.282334">
                <ele>15.037720</ele>
                <time>2006-04-22T09:10:40Z</time>
            </trkpt>
            <trkpt lon="101.276157" lat="14.283235">
                <ele>14.557007</ele>
                <time>2006-04-22T09:10:57Z</time>
            </trkpt>
            <trkpt lon="101.276178" lat="14.283278">
                <ele>14.557007</ele>
                <time>2006-04-22T09:10:58Z</time>
            </trkpt>
            <trkpt lon="101.276371" lat="14.283836">
                <ele>15.037720</ele>
                <time>2006-04-22T09:11:10Z</time>
            </trkpt>
            <trkpt lon="101.276457" lat="14.284008">
                <ele>15.518433</ele>
                <time>2006-04-22T09:11:14Z</time>
            </trkpt>
            <trkpt lon="101.276500" lat="14.284179">
                <ele>15.999023</ele>
                <time>2006-04-22T09:11:18Z</time>
            </trkpt>
            <trkpt lon="101.276522" lat="14.284329">
                <ele>15.999023</ele>
                <time>2006-04-22T09:11:22Z</time>
            </trkpt>
            <trkpt lon="101.276693" lat="14.284351">
                <ele>15.037720</ele>
                <time>2006-04-22T09:11:27Z</time>
            </trkpt>
            <trkpt lon="101.276972" lat="14.284265">
                <ele>15.518433</ele>
                <time>2006-04-22T09:11:32Z</time>
            </trkpt>
            <trkpt lon="101.277788" lat="14.283836">
                <ele>14.076416</ele>
                <time>2006-04-22T09:11:50Z</time>
            </trkpt>
            <trkpt lon="101.277874" lat="14.283750">
                <ele>14.076416</ele>
                <time>2006-04-22T09:11:53Z</time>
            </trkpt>
            <trkpt lon="101.277981" lat="14.283450">
                <ele>14.076416</ele>
                <time>2006-04-22T09:11:59Z</time>
            </trkpt>
            <trkpt lon="101.278002" lat="14.283085">
                <ele>14.076416</ele>
                <time>2006-04-22T09:12:06Z</time>
            </trkpt>
            <trkpt lon="101.278195" lat="14.282913">
                <ele>15.037720</ele>
                <time>2006-04-22T09:12:14Z</time>
            </trkpt>
            <trkpt lon="101.278238" lat="14.282870">
                <ele>15.037720</ele>
                <time>2006-04-22T09:12:17Z</time>
            </trkpt>
            <trkpt lon="101.278303" lat="14.282720">
                <ele>15.037720</ele>
                <time>2006-04-22T09:12:26Z</time>
            </trkpt>
            <trkpt lon="101.278796" lat="14.282613">
                <ele>15.037720</ele>
                <time>2006-04-22T09:12:42Z</time>
            </trkpt>
            <trkpt lon="101.278818" lat="14.282613">
                <ele>14.557007</ele>
                <time>2006-04-22T09:12:43Z</time>
            </trkpt>
            <trkpt lon="101.278882" lat="14.282312">
                <ele>15.518433</ele>
                <time>2006-04-22T09:12:57Z</time>
            </trkpt>
            <trkpt lon="101.278903" lat="14.282312">
                <ele>17.441162</ele>
                <time>2006-04-22T09:13:14Z</time>
            </trkpt>
            <trkpt lon="101.279140" lat="14.282162">
                <ele>18.402344</ele>
                <time>2006-04-22T09:13:31Z</time>
            </trkpt>
            <trkpt lon="101.279182" lat="14.282119">
                <ele>17.441162</ele>
                <time>2006-04-22T09:13:39Z</time>
            </trkpt>
            <trkpt lon="101.278925" lat="14.282312">
                <ele>17.921753</ele>
                <time>2006-04-22T09:13:56Z</time>
            </trkpt>
            <trkpt lon="101.278796" lat="14.282591">
                <ele>17.921753</ele>
                <time>2006-04-22T09:14:10Z</time>
            </trkpt>
            <trkpt lon="101.278603" lat="14.282999">
                <ele>16.960449</ele>
                <time>2006-04-22T09:14:28Z</time>
            </trkpt>
            <trkpt lon="101.278603" lat="14.283020">
                <ele>16.479736</ele>
                <time>2006-04-22T09:14:29Z</time>
            </trkpt>
            <trkpt lon="101.278775" lat="14.282935">
                <ele>15.999023</ele>
                <time>2006-04-22T09:14:37Z</time>
            </trkpt>
            <trkpt lon="101.279376" lat="14.282763">
                <ele>15.518433</ele>
                <time>2006-04-22T09:14:51Z</time>
            </trkpt>
            <trkpt lon="101.279612" lat="14.282870">
                <ele>15.037720</ele>
                <time>2006-04-22T09:14:56Z</time>
            </trkpt>
            <trkpt lon="101.279676" lat="14.282956">
                <ele>15.037720</ele>
                <time>2006-04-22T09:14:58Z</time>
            </trkpt>
            <trkpt lon="101.279891" lat="14.283020">
                <ele>15.037720</ele>
                <time>2006-04-22T09:15:02Z</time>
            </trkpt>
            <trkpt lon="101.280191" lat="14.283235">
                <ele>15.037720</ele>
                <time>2006-04-22T09:15:09Z</time>
            </trkpt>
            <trkpt lon="101.280577" lat="14.283814">
                <ele>15.518433</ele>
                <time>2006-04-22T09:15:24Z</time>
            </trkpt>
            <trkpt lon="101.280534" lat="14.283729">
                <ele>15.037720</ele>
                <time>2006-04-22T09:15:31Z</time>
            </trkpt>
            <trkpt lon="101.280491" lat="14.283686">
                <ele>15.037720</ele>
                <time>2006-04-22T09:15:33Z</time>
            </trkpt>
            <trkpt lon="101.280062" lat="14.283106">
                <ele>15.999023</ele>
                <time>2006-04-22T09:15:47Z</time>
            </trkpt>
            <trkpt lon="101.279762" lat="14.283042">
                <ele>15.999023</ele>
                <time>2006-04-22T09:15:54Z</time>
            </trkpt>
            <trkpt lon="101.279676" lat="14.282978">
                <ele>16.479736</ele>
                <time>2006-04-22T09:15:57Z</time>
            </trkpt>
            <trkpt lon="101.279633" lat="14.282913">
                <ele>15.518433</ele>
                <time>2006-04-22T09:16:02Z</time>
            </trkpt>
            <trkpt lon="101.279590" lat="14.282892">
                <ele>15.999023</ele>
                <time>2006-04-22T09:16:17Z</time>
            </trkpt>
            <trkpt lon="101.279418" lat="14.282784">
                <ele>15.999023</ele>
                <time>2006-04-22T09:16:26Z</time>
            </trkpt>
            <trkpt lon="101.278667" lat="14.282956">
                <ele>15.999023</ele>
                <time>2006-04-22T09:16:42Z</time>
            </trkpt>
            <trkpt lon="101.278603" lat="14.282956">
                <ele>15.999023</ele>
                <time>2006-04-22T09:16:44Z</time>
            </trkpt>
            <trkpt lon="101.278582" lat="14.282935">
                <ele>15.999023</ele>
                <time>2006-04-22T09:16:48Z</time>
            </trkpt>
            <trkpt lon="101.278775" lat="14.282613">
                <ele>16.960449</ele>
                <time>2006-04-22T09:17:04Z</time>
            </trkpt>
            <trkpt lon="101.278882" lat="14.282055">
                <ele>17.441162</ele>
                <time>2006-04-22T09:17:19Z</time>
            </trkpt>
            <trkpt lon="101.278968" lat="14.281583">
                <ele>16.960449</ele>
                <time>2006-04-22T09:17:29Z</time>
            </trkpt>
            <trkpt lon="101.279140" lat="14.281154">
                <ele>15.999023</ele>
                <time>2006-04-22T09:17:38Z</time>
            </trkpt>
            <trkpt lon="101.279376" lat="14.281003">
                <ele>15.037720</ele>
                <time>2006-04-22T09:17:45Z</time>
            </trkpt>
            <trkpt lon="101.279676" lat="14.281025">
                <ele>13.595825</ele>
                <time>2006-04-22T09:17:53Z</time>
            </trkpt>
            <trkpt lon="101.279762" lat="14.281003">
                <ele>14.557007</ele>
                <time>2006-04-22T09:17:55Z</time>
            </trkpt>
            <trkpt lon="101.279783" lat="14.280703">
                <ele>14.557007</ele>
                <time>2006-04-22T09:18:10Z</time>
            </trkpt>
            <trkpt lon="101.279783" lat="14.280660">
                <ele>14.557007</ele>
                <time>2006-04-22T09:18:11Z</time>
            </trkpt>
            <trkpt lon="101.279848" lat="14.280553">
                <ele>15.037720</ele>
                <time>2006-04-22T09:18:14Z</time>
            </trkpt>
            <trkpt lon="101.280234" lat="14.280295">
                <ele>14.557007</ele>
                <time>2006-04-22T09:18:25Z</time>
            </trkpt>
            <trkpt lon="101.281178" lat="14.279780">
                <ele>11.192505</ele>
                <time>2006-04-22T09:18:48Z</time>
            </trkpt>
            <trkpt lon="101.281586" lat="14.279544">
                <ele>11.673218</ele>
                <time>2006-04-22T09:19:04Z</time>
            </trkpt>
            <trkpt lon="101.281650" lat="14.279501">
                <ele>14.557007</ele>
                <time>2006-04-22T09:19:21Z</time>
            </trkpt>
            <trkpt lon="101.281650" lat="14.279501">
                <ele>18.883057</ele>
                <time>2006-04-22T09:21:28Z</time>
            </trkpt>
            <trkpt lon="101.281714" lat="14.279523">
                <ele>15.037720</ele>
                <time>2006-04-22T09:21:42Z</time>
            </trkpt>
            <trkpt lon="101.281779" lat="14.279587">
                <ele>15.518433</ele>
                <time>2006-04-22T09:21:55Z</time>
            </trkpt>
            <trkpt lon="101.281779" lat="14.279609">
                <ele>16.960449</ele>
                <time>2006-04-22T09:22:08Z</time>
            </trkpt>
            <trkpt lon="101.281736" lat="14.279759">
                <ele>16.479736</ele>
                <time>2006-04-22T09:22:26Z</time>
            </trkpt>
            <trkpt lon="101.281757" lat="14.279716">
                <ele>15.037720</ele>
                <time>2006-04-22T09:22:41Z</time>
            </trkpt>
            <trkpt lon="101.281800" lat="14.279737">
                <ele>17.441162</ele>
                <time>2006-04-22T09:23:09Z</time>
            </trkpt>
            <trkpt lon="101.281843" lat="14.279823">
                <ele>17.921753</ele>
                <time>2006-04-22T09:23:25Z</time>
            </trkpt>
            <trkpt lon="101.281865" lat="14.279845">
                <ele>16.960449</ele>
                <time>2006-04-22T09:23:33Z</time>
            </trkpt>
            <trkpt lon="101.282079" lat="14.280059">
                <ele>19.363770</ele>
                <time>2006-04-22T09:23:51Z</time>
            </trkpt>
            <trkpt lon="101.282165" lat="14.280210">
                <ele>17.921753</ele>
                <time>2006-04-22T09:24:01Z</time>
            </trkpt>
            <trkpt lon="101.282251" lat="14.280360">
                <ele>16.960449</ele>
                <time>2006-04-22T09:24:10Z</time>
            </trkpt>
            <trkpt lon="101.282187" lat="14.280424">
                <ele>16.479736</ele>
                <time>2006-04-22T09:24:15Z</time>
            </trkpt>
            <trkpt lon="101.282058" lat="14.280660">
                <ele>15.518433</ele>
                <time>2006-04-22T09:24:30Z</time>
            </trkpt>
            <trkpt lon="101.282015" lat="14.280682">
                <ele>15.999023</ele>
                <time>2006-04-22T09:24:44Z</time>
            </trkpt>
            <trkpt lon="101.281908" lat="14.280767">
                <ele>14.076416</ele>
                <time>2006-04-22T09:25:25Z</time>
            </trkpt>
            <trkpt lon="101.281865" lat="14.280767">
                <ele>13.595825</ele>
                <time>2006-04-22T09:25:38Z</time>
            </trkpt>
            <trkpt lon="101.281865" lat="14.280918">
                <ele>13.115112</ele>
                <time>2006-04-22T09:25:53Z</time>
            </trkpt>
            <trkpt lon="101.281843" lat="14.280918">
                <ele>12.634399</ele>
                <time>2006-04-22T09:26:09Z</time>
            </trkpt>
            <trkpt lon="101.281822" lat="14.280939">
                <ele>12.634399</ele>
                <time>2006-04-22T09:26:15Z</time>
            </trkpt>
            <trkpt lon="101.281779" lat="14.280961">
                <ele>13.115112</ele>
                <time>2006-04-22T09:26:19Z</time>
            </trkpt>
            <trkpt lon="101.281607" lat="14.281003">
                <ele>14.076416</ele>
                <time>2006-04-22T09:26:35Z</time>
            </trkpt>
            <trkpt lon="101.281478" lat="14.280961">
                <ele>15.037720</ele>
                <time>2006-04-22T09:26:44Z</time>
            </trkpt>
            <trkpt lon="101.281371" lat="14.281025">
                <ele>14.557007</ele>
                <time>2006-04-22T09:26:50Z</time>
            </trkpt>
            <trkpt lon="101.281157" lat="14.281197">
                <ele>14.557007</ele>
                <time>2006-04-22T09:27:02Z</time>
            </trkpt>
            <trkpt lon="101.281307" lat="14.281476">
                <ele>14.557007</ele>
                <time>2006-04-22T09:27:12Z</time>
            </trkpt>
            <trkpt lon="101.281135" lat="14.281669">
                <ele>14.557007</ele>
                <time>2006-04-22T09:27:20Z</time>
            </trkpt>
            <trkpt lon="101.281285" lat="14.281862">
                <ele>14.076416</ele>
                <time>2006-04-22T09:27:31Z</time>
            </trkpt>
            <trkpt lon="101.281457" lat="14.281926">
                <ele>13.595825</ele>
                <time>2006-04-22T09:27:38Z</time>
            </trkpt>
            <trkpt lon="101.281779" lat="14.281561">
                <ele>13.595825</ele>
                <time>2006-04-22T09:27:56Z</time>
            </trkpt>
            <trkpt lon="101.282208" lat="14.281111">
                <ele>14.076416</ele>
                <time>2006-04-22T09:28:15Z</time>
            </trkpt>
            <trkpt lon="101.282272" lat="14.281111">
                <ele>14.557007</ele>
                <time>2006-04-22T09:28:19Z</time>
            </trkpt>
            <trkpt lon="101.282294" lat="14.281111">
                <ele>15.037720</ele>
                <time>2006-04-22T09:28:22Z</time>
            </trkpt>
            <trkpt lon="101.282358" lat="14.281089">
                <ele>15.037720</ele>
                <time>2006-04-22T09:28:27Z</time>
            </trkpt>
            <trkpt lon="101.282701" lat="14.280725">
                <ele>15.999023</ele>
                <time>2006-04-22T09:28:43Z</time>
            </trkpt>
            <trkpt lon="101.283023" lat="14.280295">
                <ele>15.518433</ele>
                <time>2006-04-22T09:28:55Z</time>
            </trkpt>
            <trkpt lon="101.283088" lat="14.280124">
                <ele>15.518433</ele>
                <time>2006-04-22T09:28:59Z</time>
            </trkpt>
            <trkpt lon="101.283023" lat="14.280016">
                <ele>15.518433</ele>
                <time>2006-04-22T09:29:02Z</time>
            </trkpt>
            <trkpt lon="101.283066" lat="14.279737">
                <ele>15.518433</ele>
                <time>2006-04-22T09:29:08Z</time>
            </trkpt>
            <trkpt lon="101.283152" lat="14.279373">
                <ele>15.999023</ele>
                <time>2006-04-22T09:29:15Z</time>
            </trkpt>
            <trkpt lon="101.283066" lat="14.278922">
                <ele>15.999023</ele>
                <time>2006-04-22T09:29:23Z</time>
            </trkpt>
            <trkpt lon="101.283131" lat="14.278708">
                <ele>15.999023</ele>
                <time>2006-04-22T09:29:27Z</time>
            </trkpt>
            <trkpt lon="101.283324" lat="14.278471">
                <ele>16.479736</ele>
                <time>2006-04-22T09:29:32Z</time>
            </trkpt>
            <trkpt lon="101.283517" lat="14.278343">
                <ele>14.557007</ele>
                <time>2006-04-22T09:29:36Z</time>
            </trkpt>
            <trkpt lon="101.283431" lat="14.278214">
                <ele>12.634399</ele>
                <time>2006-04-22T09:29:42Z</time>
            </trkpt>
            <trkpt lon="101.283152" lat="14.278107">
                <ele>13.115112</ele>
                <time>2006-04-22T09:29:48Z</time>
            </trkpt>
            <trkpt lon="101.282766" lat="14.278214">
                <ele>13.115112</ele>
                <time>2006-04-22T09:29:57Z</time>
            </trkpt>
            <trkpt lon="101.282723" lat="14.278257">
                <ele>13.115112</ele>
                <time>2006-04-22T09:29:58Z</time>
            </trkpt>
            <trkpt lon="101.282208" lat="14.279029">
                <ele>14.076416</ele>
                <time>2006-04-22T09:30:18Z</time>
            </trkpt>
            <trkpt lon="101.282144" lat="14.279158">
                <ele>15.037720</ele>
                <time>2006-04-22T09:30:21Z</time>
            </trkpt>
            <trkpt lon="101.282144" lat="14.279330">
                <ele>15.037720</ele>
                <time>2006-04-22T09:30:25Z</time>
            </trkpt>
            <trkpt lon="101.282551" lat="14.279866">
                <ele>16.479736</ele>
                <time>2006-04-22T09:30:42Z</time>
            </trkpt>
            <trkpt lon="101.282959" lat="14.279974">
                <ele>17.441162</ele>
                <time>2006-04-22T09:30:54Z</time>
            </trkpt>
            <trkpt lon="101.283023" lat="14.279974">
                <ele>17.921753</ele>
                <time>2006-04-22T09:30:58Z</time>
            </trkpt>
            <trkpt lon="101.283259" lat="14.279737">
                <ele>17.921753</ele>
                <time>2006-04-22T09:31:12Z</time>
            </trkpt>
            <trkpt lon="101.283345" lat="14.279716">
                <ele>16.960449</ele>
                <time>2006-04-22T09:31:25Z</time>
            </trkpt>
            <trkpt lon="101.283367" lat="14.279716">
                <ele>18.402344</ele>
                <time>2006-04-22T09:32:05Z</time>
            </trkpt>
            <trkpt lon="101.283410" lat="14.279716">
                <ele>18.883057</ele>
                <time>2006-04-22T09:32:23Z</time>
            </trkpt>
            <trkpt lon="101.283431" lat="14.279716">
                <ele>19.363770</ele>
                <time>2006-04-22T09:32:40Z</time>
            </trkpt>
            <trkpt lon="101.283410" lat="14.279716">
                <ele>20.324951</ele>
                <time>2006-04-22T09:33:03Z</time>
            </trkpt>
            <trkpt lon="101.283453" lat="14.279716">
                <ele>20.805664</ele>
                <time>2006-04-22T09:33:15Z</time>
            </trkpt>
            <trkpt lon="101.283453" lat="14.279952">
                <ele>19.363770</ele>
                <time>2006-04-22T09:33:24Z</time>
            </trkpt>
            <trkpt lon="101.283281" lat="14.280167">
                <ele>18.883057</ele>
                <time>2006-04-22T09:33:30Z</time>
            </trkpt>
            <trkpt lon="101.283302" lat="14.280338">
                <ele>18.883057</ele>
                <time>2006-04-22T09:33:35Z</time>
            </trkpt>
            <trkpt lon="101.283367" lat="14.280467">
                <ele>18.883057</ele>
                <time>2006-04-22T09:33:39Z</time>
            </trkpt>
            <trkpt lon="101.283517" lat="14.280574">
                <ele>17.921753</ele>
                <time>2006-04-22T09:33:43Z</time>
            </trkpt>
            <trkpt lon="101.283667" lat="14.280703">
                <ele>19.363770</ele>
                <time>2006-04-22T09:33:47Z</time>
            </trkpt>
            <trkpt lon="101.283946" lat="14.281003">
                <ele>20.805664</ele>
                <time>2006-04-22T09:33:56Z</time>
            </trkpt>
            <trkpt lon="101.284118" lat="14.281111">
                <ele>18.883057</ele>
                <time>2006-04-22T09:34:01Z</time>
            </trkpt>
            <trkpt lon="101.284204" lat="14.281089">
                <ele>19.363770</ele>
                <time>2006-04-22T09:34:03Z</time>
            </trkpt>
            <trkpt lon="101.284332" lat="14.281046">
                <ele>18.402344</ele>
                <time>2006-04-22T09:34:06Z</time>
            </trkpt>
            <trkpt lon="101.284740" lat="14.280896">
                <ele>18.883057</ele>
                <time>2006-04-22T09:34:15Z</time>
            </trkpt>
            <trkpt lon="101.284783" lat="14.280832">
                <ele>18.883057</ele>
                <time>2006-04-22T09:34:17Z</time>
            </trkpt>
            <trkpt lon="101.284719" lat="14.280660">
                <ele>19.363770</ele>
                <time>2006-04-22T09:34:21Z</time>
            </trkpt>
            <trkpt lon="101.284654" lat="14.280574">
                <ele>18.883057</ele>
                <time>2006-04-22T09:34:23Z</time>
            </trkpt>
            <trkpt lon="101.284568" lat="14.280467">
                <ele>18.883057</ele>
                <time>2006-04-22T09:34:26Z</time>
            </trkpt>
            <trkpt lon="101.284311" lat="14.279952">
                <ele>17.921753</ele>
                <time>2006-04-22T09:34:38Z</time>
            </trkpt>
            <trkpt lon="101.284354" lat="14.279673">
                <ele>17.441162</ele>
                <time>2006-04-22T09:34:45Z</time>
            </trkpt>
            <trkpt lon="101.284461" lat="14.279459">
                <ele>16.960449</ele>
                <time>2006-04-22T09:34:50Z</time>
            </trkpt>
            <trkpt lon="101.285276" lat="14.278879">
                <ele>18.402344</ele>
                <time>2006-04-22T09:35:09Z</time>
            </trkpt>
            <trkpt lon="101.285319" lat="14.278858">
                <ele>18.402344</ele>
                <time>2006-04-22T09:35:10Z</time>
            </trkpt>
            <trkpt lon="101.285534" lat="14.278793">
                <ele>18.402344</ele>
                <time>2006-04-22T09:35:15Z</time>
            </trkpt>
            <trkpt lon="101.285770" lat="14.278750">
                <ele>15.518433</ele>
                <time>2006-04-22T09:35:21Z</time>
            </trkpt>
            <trkpt lon="101.285899" lat="14.278622">
                <ele>15.037720</ele>
                <time>2006-04-22T09:35:26Z</time>
            </trkpt>
            <trkpt lon="101.285448" lat="14.278429">
                <ele>16.960449</ele>
                <time>2006-04-22T09:35:38Z</time>
            </trkpt>
            <trkpt lon="101.285212" lat="14.278364">
                <ele>16.479736</ele>
                <time>2006-04-22T09:35:43Z</time>
            </trkpt>
            <trkpt lon="101.284440" lat="14.278235">
                <ele>16.479736</ele>
                <time>2006-04-22T09:35:58Z</time>
            </trkpt>
            <trkpt lon="101.284332" lat="14.278235">
                <ele>16.479736</ele>
                <time>2006-04-22T09:36:00Z</time>
            </trkpt>
            <trkpt lon="101.284182" lat="14.278257">
                <ele>16.479736</ele>
                <time>2006-04-22T09:36:04Z</time>
            </trkpt>
            <trkpt lon="101.283817" lat="14.278107">
                <ele>16.960449</ele>
                <time>2006-04-22T09:36:14Z</time>
            </trkpt>
            <trkpt lon="101.283731" lat="14.278085">
                <ele>15.999023</ele>
                <time>2006-04-22T09:36:16Z</time>
            </trkpt>
            <trkpt lon="101.283624" lat="14.278150">
                <ele>16.479736</ele>
                <time>2006-04-22T09:36:19Z</time>
            </trkpt>
            <trkpt lon="101.283109" lat="14.278536">
                <ele>18.402344</ele>
                <time>2006-04-22T09:36:33Z</time>
            </trkpt>
            <trkpt lon="101.283045" lat="14.278622">
                <ele>18.402344</ele>
                <time>2006-04-22T09:36:35Z</time>
            </trkpt>
            <trkpt lon="101.282980" lat="14.278686">
                <ele>18.402344</ele>
                <time>2006-04-22T09:36:37Z</time>
            </trkpt>
            <trkpt lon="101.282980" lat="14.278772">
                <ele>18.402344</ele>
                <time>2006-04-22T09:36:39Z</time>
            </trkpt>
            <trkpt lon="101.283066" lat="14.279137">
                <ele>13.595825</ele>
                <time>2006-04-22T09:36:48Z</time>
            </trkpt>
            <trkpt lon="101.283088" lat="14.279394">
                <ele>12.153809</ele>
                <time>2006-04-22T09:36:55Z</time>
            </trkpt>
            <trkpt lon="101.283066" lat="14.279501">
                <ele>10.231201</ele>
                <time>2006-04-22T09:36:58Z</time>
            </trkpt>
            <trkpt lon="101.283023" lat="14.279652">
                <ele>10.231201</ele>
                <time>2006-04-22T09:37:01Z</time>
            </trkpt>
            <trkpt lon="101.283002" lat="14.279845">
                <ele>10.231201</ele>
                <time>2006-04-22T09:37:06Z</time>
            </trkpt>
            <trkpt lon="101.283023" lat="14.280381">
                <ele>13.115112</ele>
                <time>2006-04-22T09:37:22Z</time>
            </trkpt>
            <trkpt lon="101.282680" lat="14.280789">
                <ele>15.037720</ele>
                <time>2006-04-22T09:37:36Z</time>
            </trkpt>
            <trkpt lon="101.282637" lat="14.280853">
                <ele>15.037720</ele>
                <time>2006-04-22T09:37:38Z</time>
            </trkpt>
            <trkpt lon="101.281950" lat="14.281561">
                <ele>15.037720</ele>
                <time>2006-04-22T09:37:59Z</time>
            </trkpt>
            <trkpt lon="101.281328" lat="14.282119">
                <ele>15.518433</ele>
                <time>2006-04-22T09:38:16Z</time>
            </trkpt>
            <trkpt lon="101.280684" lat="14.282699">
                <ele>15.037720</ele>
                <time>2006-04-22T09:38:36Z</time>
            </trkpt>
            <trkpt lon="101.280878" lat="14.282935">
                <ele>14.557007</ele>
                <time>2006-04-22T09:38:46Z</time>
            </trkpt>
            <trkpt lon="101.281607" lat="14.283020">
                <ele>15.999023</ele>
                <time>2006-04-22T09:39:05Z</time>
            </trkpt>
            <trkpt lon="101.281736" lat="14.283063">
                <ele>15.999023</ele>
                <time>2006-04-22T09:39:10Z</time>
            </trkpt>
            <trkpt lon="101.281779" lat="14.283085">
                <ele>15.999023</ele>
                <time>2006-04-22T09:39:14Z</time>
            </trkpt>
            <trkpt lon="101.281779" lat="14.283364">
                <ele>16.479736</ele>
                <time>2006-04-22T09:39:27Z</time>
            </trkpt>
            <trkpt lon="101.282036" lat="14.283557">
                <ele>16.960449</ele>
                <time>2006-04-22T09:39:35Z</time>
            </trkpt>
            <trkpt lon="101.282487" lat="14.284286">
                <ele>18.402344</ele>
                <time>2006-04-22T09:39:54Z</time>
            </trkpt>
            <trkpt lon="101.282873" lat="14.284887">
                <ele>18.402344</ele>
                <time>2006-04-22T09:40:10Z</time>
            </trkpt>
            <trkpt lon="101.282637" lat="14.285059">
                <ele>19.844360</ele>
                <time>2006-04-22T09:40:18Z</time>
            </trkpt>
            <trkpt lon="101.282165" lat="14.285252">
                <ele>19.363770</ele>
                <time>2006-04-22T09:40:30Z</time>
            </trkpt>
            <trkpt lon="101.282015" lat="14.285209">
                <ele>18.883057</ele>
                <time>2006-04-22T09:40:34Z</time>
            </trkpt>
            <trkpt lon="101.281865" lat="14.285316">
                <ele>19.363770</ele>
                <time>2006-04-22T09:40:41Z</time>
            </trkpt>
            <trkpt lon="101.281607" lat="14.285381">
                <ele>20.324951</ele>
                <time>2006-04-22T09:40:48Z</time>
            </trkpt>
            <trkpt lon="101.281264" lat="14.285381">
                <ele>19.844360</ele>
                <time>2006-04-22T09:40:55Z</time>
            </trkpt>
            <trkpt lon="101.280749" lat="14.285424">
                <ele>18.883057</ele>
                <time>2006-04-22T09:41:06Z</time>
            </trkpt>
            <trkpt lon="101.280706" lat="14.285703">
                <ele>17.441162</ele>
                <time>2006-04-22T09:41:14Z</time>
            </trkpt>
            <trkpt lon="101.280813" lat="14.285831">
                <ele>16.960449</ele>
                <time>2006-04-22T09:41:18Z</time>
            </trkpt>
            <trkpt lon="101.281135" lat="14.286175">
                <ele>16.960449</ele>
                <time>2006-04-22T09:41:28Z</time>
            </trkpt>
            <trkpt lon="101.281264" lat="14.286325">
                <ele>16.960449</ele>
                <time>2006-04-22T09:41:32Z</time>
            </trkpt>
            <trkpt lon="101.281350" lat="14.286454">
                <ele>16.960449</ele>
                <time>2006-04-22T09:41:35Z</time>
            </trkpt>
            <trkpt lon="101.281435" lat="14.286540">
                <ele>17.441162</ele>
                <time>2006-04-22T09:41:38Z</time>
            </trkpt>
            <trkpt lon="101.281543" lat="14.286625">
                <ele>17.921753</ele>
                <time>2006-04-22T09:41:41Z</time>
            </trkpt>
            <trkpt lon="101.281672" lat="14.286819">
                <ele>18.402344</ele>
                <time>2006-04-22T09:41:47Z</time>
            </trkpt>
            <trkpt lon="101.281865" lat="14.286969">
                <ele>18.402344</ele>
                <time>2006-04-22T09:41:53Z</time>
            </trkpt>
            <trkpt lon="101.281736" lat="14.287162">
                <ele>17.921753</ele>
                <time>2006-04-22T09:41:59Z</time>
            </trkpt>
            <trkpt lon="101.280985" lat="14.287484">
                <ele>18.402344</ele>
                <time>2006-04-22T09:42:18Z</time>
            </trkpt>
            <trkpt lon="101.280899" lat="14.287570">
                <ele>17.441162</ele>
                <time>2006-04-22T09:42:21Z</time>
            </trkpt>
            <trkpt lon="101.280706" lat="14.288192">
                <ele>18.402344</ele>
                <time>2006-04-22T09:42:35Z</time>
            </trkpt>
            <trkpt lon="101.280642" lat="14.288363">
                <ele>18.883057</ele>
                <time>2006-04-22T09:42:40Z</time>
            </trkpt>
            <trkpt lon="101.280727" lat="14.288492">
                <ele>19.363770</ele>
                <time>2006-04-22T09:42:45Z</time>
            </trkpt>
            <trkpt lon="101.280985" lat="14.288750">
                <ele>19.844360</ele>
                <time>2006-04-22T09:42:58Z</time>
            </trkpt>
            <trkpt lon="101.281285" lat="14.288900">
                <ele>19.844360</ele>
                <time>2006-04-22T09:43:11Z</time>
            </trkpt>
            <trkpt lon="101.281736" lat="14.289114">
                <ele>19.363770</ele>
                <time>2006-04-22T09:43:28Z</time>
            </trkpt>
            <trkpt lon="101.282315" lat="14.289415">
                <ele>19.844360</ele>
                <time>2006-04-22T09:43:40Z</time>
            </trkpt>
            <trkpt lon="101.283453" lat="14.289951">
                <ele>20.805664</ele>
                <time>2006-04-22T09:43:59Z</time>
            </trkpt>
            <trkpt lon="101.284955" lat="14.290831">
                <ele>19.363770</ele>
                <time>2006-04-22T09:44:25Z</time>
            </trkpt>
            <trkpt lon="101.285620" lat="14.291303">
                <ele>19.363770</ele>
                <time>2006-04-22T09:44:38Z</time>
            </trkpt>
            <trkpt lon="101.286564" lat="14.291968">
                <ele>19.363770</ele>
                <time>2006-04-22T09:44:58Z</time>
            </trkpt>
            <trkpt lon="101.287787" lat="14.292848">
                <ele>20.324951</ele>
                <time>2006-04-22T09:45:24Z</time>
            </trkpt>
            <trkpt lon="101.288753" lat="14.293535">
                <ele>20.324951</ele>
                <time>2006-04-22T09:45:45Z</time>
            </trkpt>
            <trkpt lon="101.289890" lat="14.294350">
                <ele>21.286377</ele>
                <time>2006-04-22T09:46:09Z</time>
            </trkpt>
            <trkpt lon="101.290126" lat="14.294522">
                <ele>21.766968</ele>
                <time>2006-04-22T09:46:14Z</time>
            </trkpt>
            <trkpt lon="101.291027" lat="14.294972">
                <ele>23.689575</ele>
                <time>2006-04-22T09:46:33Z</time>
            </trkpt>
            <trkpt lon="101.291263" lat="14.295123">
                <ele>24.170288</ele>
                <time>2006-04-22T09:46:39Z</time>
            </trkpt>
            <trkpt lon="101.291456" lat="14.295101">
                <ele>24.170288</ele>
                <time>2006-04-22T09:46:44Z</time>
            </trkpt>
            <trkpt lon="101.291521" lat="14.295015">
                <ele>24.170288</ele>
                <time>2006-04-22T09:46:46Z</time>
            </trkpt>
            <trkpt lon="101.291757" lat="14.294930">
                <ele>23.208984</ele>
                <time>2006-04-22T09:46:51Z</time>
            </trkpt>
            <trkpt lon="101.292293" lat="14.294930">
                <ele>21.766968</ele>
                <time>2006-04-22T09:47:04Z</time>
            </trkpt>
            <trkpt lon="101.293066" lat="14.294930">
                <ele>22.247559</ele>
                <time>2006-04-22T09:47:20Z</time>
            </trkpt>
            <trkpt lon="101.293409" lat="14.294930">
                <ele>22.247559</ele>
                <time>2006-04-22T09:47:27Z</time>
            </trkpt>
            <trkpt lon="101.293602" lat="14.294887">
                <ele>23.208984</ele>
                <time>2006-04-22T09:47:31Z</time>
            </trkpt>
            <trkpt lon="101.294181" lat="14.294522">
                <ele>22.247559</ele>
                <time>2006-04-22T09:47:46Z</time>
            </trkpt>
            <trkpt lon="101.294696" lat="14.294221">
                <ele>21.766968</ele>
                <time>2006-04-22T09:47:59Z</time>
            </trkpt>
            <trkpt lon="101.294954" lat="14.294329">
                <ele>20.805664</ele>
                <time>2006-04-22T09:48:06Z</time>
            </trkpt>
            <trkpt lon="101.295040" lat="14.294307">
                <ele>20.805664</ele>
                <time>2006-04-22T09:48:08Z</time>
            </trkpt>
            <trkpt lon="101.295147" lat="14.294286">
                <ele>20.805664</ele>
                <time>2006-04-22T09:48:11Z</time>
            </trkpt>
            <trkpt lon="101.295319" lat="14.294221">
                <ele>20.805664</ele>
                <time>2006-04-22T09:48:15Z</time>
            </trkpt>
            <trkpt lon="101.295855" lat="14.294007">
                <ele>19.844360</ele>
                <time>2006-04-22T09:48:27Z</time>
            </trkpt>
            <trkpt lon="101.296134" lat="14.294178">
                <ele>19.363770</ele>
                <time>2006-04-22T09:48:38Z</time>
            </trkpt>
            <trkpt lon="101.296327" lat="14.294372">
                <ele>19.363770</ele>
                <time>2006-04-22T09:48:48Z</time>
            </trkpt>
            <trkpt lon="101.296456" lat="14.294586">
                <ele>18.883057</ele>
                <time>2006-04-22T09:49:01Z</time>
            </trkpt>
            <trkpt lon="101.296520" lat="14.294715">
                <ele>19.844360</ele>
                <time>2006-04-22T09:49:14Z</time>
            </trkpt>
            <trkpt lon="101.296542" lat="14.294779">
                <ele>19.844360</ele>
                <time>2006-04-22T09:49:30Z</time>
            </trkpt>
            <trkpt lon="101.296542" lat="14.294844">
                <ele>20.324951</ele>
                <time>2006-04-22T09:49:48Z</time>
            </trkpt>
            <trkpt lon="101.296585" lat="14.294887">
                <ele>17.921753</ele>
                <time>2006-04-22T09:50:04Z</time>
            </trkpt>
            <trkpt lon="101.296520" lat="14.294951">
                <ele>18.402344</ele>
                <time>2006-04-22T09:50:18Z</time>
            </trkpt>
            <trkpt lon="101.296477" lat="14.295037">
                <ele>19.363770</ele>
                <time>2006-04-22T09:50:32Z</time>
            </trkpt>
            <trkpt lon="101.296327" lat="14.295208">
                <ele>18.402344</ele>
                <time>2006-04-22T09:50:48Z</time>
            </trkpt>
            <trkpt lon="101.296241" lat="14.295337">
                <ele>16.479736</ele>
                <time>2006-04-22T09:50:57Z</time>
            </trkpt>
            <trkpt lon="101.296220" lat="14.295380">
                <ele>17.441162</ele>
                <time>2006-04-22T09:51:11Z</time>
            </trkpt>
            <trkpt lon="101.296155" lat="14.295444">
                <ele>18.883057</ele>
                <time>2006-04-22T09:51:29Z</time>
            </trkpt>
            <trkpt lon="101.296134" lat="14.295487">
                <ele>19.363770</ele>
                <time>2006-04-22T09:51:45Z</time>
            </trkpt>
            <trkpt lon="101.296177" lat="14.295552">
                <ele>20.324951</ele>
                <time>2006-04-22T09:51:59Z</time>
            </trkpt>
            <trkpt lon="101.296177" lat="14.295552">
                <ele>20.805664</ele>
                <time>2006-04-22T09:52:00Z</time>
            </trkpt>
            <trkpt lon="101.296263" lat="14.295745">
                <ele>20.805664</ele>
                <time>2006-04-22T09:52:15Z</time>
            </trkpt>
            <trkpt lon="101.296263" lat="14.295788">
                <ele>20.805664</ele>
                <time>2006-04-22T09:52:27Z</time>
            </trkpt>
            <trkpt lon="101.296220" lat="14.295874">
                <ele>19.844360</ele>
                <time>2006-04-22T09:52:40Z</time>
            </trkpt>
            <trkpt lon="101.296091" lat="14.295938">
                <ele>21.766968</ele>
                <time>2006-04-22T09:53:02Z</time>
            </trkpt>
            <trkpt lon="101.296005" lat="14.295959">
                <ele>22.247559</ele>
                <time>2006-04-22T09:53:23Z</time>
            </trkpt>
            <trkpt lon="101.295919" lat="14.296131">
                <ele>20.324951</ele>
                <time>2006-04-22T09:53:39Z</time>
            </trkpt>
            <trkpt lon="101.295705" lat="14.296367">
                <ele>19.844360</ele>
                <time>2006-04-22T09:53:57Z</time>
            </trkpt>
            <trkpt lon="101.295190" lat="14.296689">
                <ele>21.286377</ele>
                <time>2006-04-22T09:54:17Z</time>
            </trkpt>
            <trkpt lon="101.294782" lat="14.297032">
                <ele>23.689575</ele>
                <time>2006-04-22T09:54:34Z</time>
            </trkpt>
            <trkpt lon="101.294589" lat="14.297354">
                <ele>22.247559</ele>
                <time>2006-04-22T09:54:45Z</time>
            </trkpt>
            <trkpt lon="101.294417" lat="14.297740">
                <ele>22.728271</ele>
                <time>2006-04-22T09:54:57Z</time>
            </trkpt>
            <trkpt lon="101.294332" lat="14.298170">
                <ele>24.651001</ele>
                <time>2006-04-22T09:55:11Z</time>
            </trkpt>
            <trkpt lon="101.294353" lat="14.298363">
                <ele>25.612305</ele>
                <time>2006-04-22T09:55:19Z</time>
            </trkpt>
            <trkpt lon="101.293945" lat="14.298620">
                <ele>26.573608</ele>
                <time>2006-04-22T09:55:35Z</time>
            </trkpt>
            <trkpt lon="101.293237" lat="14.298878">
                <ele>26.573608</ele>
                <time>2006-04-22T09:55:54Z</time>
            </trkpt>
            <trkpt lon="101.293001" lat="14.298985">
                <ele>26.573608</ele>
                <time>2006-04-22T09:56:01Z</time>
            </trkpt>
            <trkpt lon="101.293023" lat="14.299350">
                <ele>27.534912</ele>
                <time>2006-04-22T09:56:12Z</time>
            </trkpt>
            <trkpt lon="101.292980" lat="14.299564">
                <ele>28.496216</ele>
                <time>2006-04-22T09:56:18Z</time>
            </trkpt>
            <trkpt lon="101.293108" lat="14.300401">
                <ele>29.457520</ele>
                <time>2006-04-22T09:56:37Z</time>
            </trkpt>
            <trkpt lon="101.293344" lat="14.301474">
                <ele>28.976929</ele>
                <time>2006-04-22T09:57:00Z</time>
            </trkpt>
            <trkpt lon="101.293473" lat="14.302440">
                <ele>29.457520</ele>
                <time>2006-04-22T09:57:19Z</time>
            </trkpt>
            <trkpt lon="101.293430" lat="14.303598">
                <ele>30.418823</ele>
                <time>2006-04-22T09:57:44Z</time>
            </trkpt>
            <trkpt lon="101.293387" lat="14.304779">
                <ele>32.341553</ele>
                <time>2006-04-22T09:58:10Z</time>
            </trkpt>
            <trkpt lon="101.293344" lat="14.305937">
                <ele>35.225464</ele>
                <time>2006-04-22T09:58:36Z</time>
            </trkpt>
            <trkpt lon="101.293323" lat="14.306774">
                <ele>35.225464</ele>
                <time>2006-04-22T09:58:54Z</time>
            </trkpt>
            <trkpt lon="101.293409" lat="14.307632">
                <ele>35.706055</ele>
                <time>2006-04-22T09:59:13Z</time>
            </trkpt>
            <trkpt lon="101.293859" lat="14.308641">
                <ele>33.783447</ele>
                <time>2006-04-22T09:59:32Z</time>
            </trkpt>
            <trkpt lon="101.294718" lat="14.310272">
                <ele>32.822266</ele>
                <time>2006-04-22T10:00:03Z</time>
            </trkpt>
            <trkpt lon="101.295447" lat="14.311645">
                <ele>33.302856</ele>
                <time>2006-04-22T10:00:28Z</time>
            </trkpt>
            <trkpt lon="101.296027" lat="14.312761">
                <ele>34.744873</ele>
                <time>2006-04-22T10:00:50Z</time>
            </trkpt>
            <trkpt lon="101.296692" lat="14.313576">
                <ele>33.783447</ele>
                <time>2006-04-22T10:01:10Z</time>
            </trkpt>
            <trkpt lon="101.297657" lat="14.314327">
                <ele>31.860718</ele>
                <time>2006-04-22T10:01:29Z</time>
            </trkpt>
            <trkpt lon="101.298752" lat="14.315186">
                <ele>32.822266</ele>
                <time>2006-04-22T10:01:51Z</time>
            </trkpt>
            <trkpt lon="101.299803" lat="14.315979">
                <ele>32.341553</ele>
                <time>2006-04-22T10:02:11Z</time>
            </trkpt>
            <trkpt lon="101.300726" lat="14.316537">
                <ele>32.341553</ele>
                <time>2006-04-22T10:02:29Z</time>
            </trkpt>
            <trkpt lon="101.300812" lat="14.316580">
                <ele>32.341553</ele>
                <time>2006-04-22T10:02:31Z</time>
            </trkpt>
            <trkpt lon="101.301048" lat="14.316537">
                <ele>32.822266</ele>
                <time>2006-04-22T10:02:36Z</time>
            </trkpt>
            <trkpt lon="101.301348" lat="14.316645">
                <ele>32.822266</ele>
                <time>2006-04-22T10:02:43Z</time>
            </trkpt>
            <trkpt lon="101.301713" lat="14.316945">
                <ele>31.380127</ele>
                <time>2006-04-22T10:02:55Z</time>
            </trkpt>
            <trkpt lon="101.301928" lat="14.317117">
                <ele>32.822266</ele>
                <time>2006-04-22T10:03:05Z</time>
            </trkpt>
            <trkpt lon="101.301949" lat="14.317117">
                <ele>32.822266</ele>
                <time>2006-04-22T10:03:10Z</time>
            </trkpt>
            <trkpt lon="101.301928" lat="14.317138">
                <ele>33.302856</ele>
                <time>2006-04-22T10:03:22Z</time>
            </trkpt>
            <trkpt lon="101.301928" lat="14.317095">
                <ele>39.551270</ele>
                <time>2006-04-22T10:33:21Z</time>
            </trkpt>
            <trkpt lon="101.301885" lat="14.317095">
                <ele>38.109375</ele>
                <time>2006-04-22T10:33:31Z</time>
            </trkpt>
        </trkseg>
    </trk>
</gpx>